Observation data for Castolon 1NW BBNP on 02/14/2020      Previous  Date  Next       Current Mesonet Observations  Soil Data  Daily Summary Page  Observations in Plain Language
KCA2 140600Z 29010KT 12/M02 A3015 RMK A01 T01161017  RH  040%=      5-min Rain = 0
KCA2 140601Z 30010KT 12/M02 A3015 RMK A01 T01171017  RH  039%=      5-min Rain = 0
KCA2 140602Z 30010KT 12/M02 A3015 RMK A01 T01171017  RH  039%=      5-min Rain = 0
KCA2 140603Z 30009KT 12/M02 A3015 RMK A01 T01171017  RH  039%=      5-min Rain = 0
KCA2 140604Z 29008KT 12/M02 A3015 RMK A01 T01171017  RH  039%=      5-min Rain = 0
KCA2 140605Z 29008KT 12/M02 A3016 RMK A01 T01171017  RH  039%=      5-min Rain = 0
KCA2 140606Z 29009KT 12/M02 A3016 RMK A01 T01171017  RH  039%=      5-min Rain = 0
KCA2 140607Z 30010KT 12/M02 A3016 RMK A01 T01161017  RH  039%=      5-min Rain = 0
KCA2 140608Z 30010KT 12/M02 A3016 RMK A01 T01161017  RH  039%=      5-min Rain = 0
KCA2 140609Z 30011KT 12/M02 A3016 RMK A01 T01161017  RH  040%=      5-min Rain = 0
KCA2 140610Z 29008KT 12/M02 A3016 RMK A01 T01161017  RH  039%=      5-min Rain = 0
KCA2 140611Z 29008KT 12/M02 A3016 RMK A01 T01161018  RH  039%=      5-min Rain = 0
KCA2 140612Z 29008KT 12/M02 A3016 RMK A01 T01161017  RH  039%=      5-min Rain = 0
KCA2 140613Z 30009KT 12/M02 A3016 RMK A01 T01151018  RH  040%=      5-min Rain = 0
KCA2 140614Z 29009KT 12/M02 A3016 RMK A01 T01151018  RH  040%=      5-min Rain = 0
KCA2 140615Z 30009KT 12/M02 A3016 RMK A01 T01151018  RH  040%=      5-min Rain = 0
KCA2 140616Z 30009KT 12/M02 A3016 RMK A01 T01161018  RH  039%=      5-min Rain = 0
KCA2 140617Z 30008KT 12/M02 A3016 RMK A01 T01151018  RH  039%=      5-min Rain = 0
KCA2 140618Z 29009KT 12/M02 A3016 RMK A01 T01151018  RH  039%=      5-min Rain = 0
KCA2 140619Z 29008KT 12/M02 A3016 RMK A01 T01151018  RH  040%=      5-min Rain = 0
KCA2 140620Z 29007KT 12/M02 A3016 RMK A01 T01151018  RH  040%=      5-min Rain = 0
KCA2 140621Z 30007KT 11/M02 A3016 RMK A01 T01141018  RH  040%=      5-min Rain = 0
KCA2 140622Z 30007KT 11/M02 A3016 RMK A01 T01131018  RH  040%=      5-min Rain = 0
KCA2 140623Z 30007KT 11/M02 A3016 RMK A01 T01131018  RH  040%=      5-min Rain = 0
KCA2 140624Z 29008KT 11/M02 A3016 RMK A01 T01131018  RH  040%=      5-min Rain = 0
KCA2 140625Z 30008KT 11/M02 A3016 RMK A01 T01131018  RH  040%=      5-min Rain = 0
KCA2 140626Z 30008KT 11/M02 A3016 RMK A01 T01121018  RH  040%=      5-min Rain = 0
KCA2 140627Z 30007KT 11/M02 A3016 RMK A01 T01121018  RH  040%=      5-min Rain = 0
KCA2 140628Z 30009KT 11/M02 A3016 RMK A01 T01121018  RH  040%=      5-min Rain = 0
KCA2 140629Z 30009KT 11/M02 A3016 RMK A01 T01121018  RH  040%=      5-min Rain = 0
KCA2 140630Z 29008KT 11/M02 A3016 RMK A01 T01131018  RH  040%=      5-min Rain = 0
KCA2 140631Z 29009KT 11/M02 A3016 RMK A01 T01131018  RH  040%=      5-min Rain = 0
KCA2 140632Z 29009KT 11/M02 A3016 RMK A01 T01121019  RH  040%=      5-min Rain = 0
KCA2 140633Z 29009KT 11/M02 A3016 RMK A01 T01121018  RH  040%=      5-min Rain = 0
KCA2 140634Z 29008KT 11/M02 A3016 RMK A01 T01111019  RH  040%=      5-min Rain = 0
KCA2 140635Z 29008KT 11/M02 A3016 RMK A01 T01101019  RH  041%=      5-min Rain = 0
KCA2 140636Z 29008KT 11/M02 A3016 RMK A01 T01091019  RH  041%=      5-min Rain = 0
KCA2 140637Z 29009KT 11/M02 A3016 RMK A01 T01091018  RH  041%=      5-min Rain = 0
KCA2 140638Z 29008KT 11/M02 A3016 RMK A01 T01091018  RH  041%=      5-min Rain = 0
KCA2 140639Z 29009KT 11/M02 A3016 RMK A01 T01091018  RH  041%=      5-min Rain = 0
KCA2 140640Z 29008KT 11/M02 A3016 RMK A01 T01091018  RH  041%=      5-min Rain = 0
KCA2 140641Z 29008KT 11/M02 A3016 RMK A01 T01091019  RH  041%=      5-min Rain = 0
KCA2 140642Z 29008KT 11/M02 A3016 RMK A01 T01091019  RH  041%=      5-min Rain = 0
KCA2 140643Z 29008KT 11/M02 A3016 RMK A01 T01101018  RH  041%=      5-min Rain = 0
KCA2 140644Z 29008KT 11/M02 A3016 RMK A01 T01101019  RH  041%=      5-min Rain = 0
KCA2 140645Z 29008KT 11/M02 A3016 RMK A01 T01101019  RH  041%=      5-min Rain = 0
KCA2 140646Z 29009KT 11/M02 A3016 RMK A01 T01101019  RH  041%=      5-min Rain = 0
KCA2 140647Z 29008KT 11/M02 A3016 RMK A01 T01101019  RH  041%=      5-min Rain = 0
KCA2 140648Z 29008KT 11/M02 A3016 RMK A01 T01101019  RH  041%=      5-min Rain = 0
KCA2 140649Z 29009KT 11/M02 A3016 RMK A01 T01111018  RH  041%=      5-min Rain = 0
KCA2 140650Z 29009KT 11/M02 A3016 RMK A01 T01101019  RH  041%=      5-min Rain = 0
KCA2 140651Z 30009KT 11/M02 A3016 RMK A01 T01101019  RH  041%=      5-min Rain = 0
KCA2 140652Z 30010KT 11/M02 A3016 RMK A01 T01101019  RH  041%=      5-min Rain = 0
KCA2 140653Z 30009KT 11/M02 A3016 RMK A01 T01101019  RH  040%=      5-min Rain = 0
KCA2 140654Z 30009KT 11/M02 A3016 RMK A01 T01101019  RH  040%=      5-min Rain = 0
KCA2 140655Z 30009KT 11/M02 A3016 RMK A01 T01111019  RH  040%=      5-min Rain = 0
KCA2 140656Z 30009KT 11/M02 A3016 RMK A01 T01101019  RH  040%=      5-min Rain = 0
KCA2 140657Z 30009KT 11/M02 A3016 RMK A01 T01101019  RH  040%=      5-min Rain = 0
KCA2 140658Z 30009KT 11/M02 A3016 RMK A01 T01111019  RH  040%=      5-min Rain = 0
KCA2 140659Z 30008KT 11/M02 A3016 RMK A01 T01111019  RH  040%=      5-min Rain = 0
KCA2 140700Z 31008KT 11/M02 A3016 RMK A01 T01121019  RH  040%=      5-min Rain = 0
KCA2 140701Z 30008KT 11/M02 A3016 RMK A01 T01121019  RH  040%=      5-min Rain = 0
KCA2 140702Z 31007KT 11/M02 A3016 RMK A01 T01121019  RH  040%=      5-min Rain = 0
KCA2 140703Z 30007KT 11/M02 A3016 RMK A01 T01121019  RH  040%=      5-min Rain = 0
KCA2 140704Z 30007KT 11/M02 A3016 RMK A01 T01121019  RH  040%=      5-min Rain = 0
KCA2 140705Z 30006KT 11/M02 A3016 RMK A01 T01111019  RH  040%=      5-min Rain = 0
KCA2 140706Z 30007KT 11/M02 A3016 RMK A01 T01111019  RH  040%=      5-min Rain = 0
KCA2 140707Z 30008KT 11/M02 A3016 RMK A01 T01101020  RH  040%=      5-min Rain = 0
KCA2 140708Z 31007KT 11/M02 A3016 RMK A01 T01101019  RH  040%=      5-min Rain = 0
KCA2 140709Z 31007KT 11/M02 A3016 RMK A01 T01111019  RH  040%=      5-min Rain = 0
KCA2 140710Z 30008KT 11/M02 A3016 RMK A01 T01101019  RH  040%=      5-min Rain = 0
KCA2 140711Z 31008KT 11/M02 A3016 RMK A01 T01101020  RH  040%=      5-min Rain = 0
KCA2 140712Z 31007KT 11/M02 A3016 RMK A01 T01101020  RH  040%=      5-min Rain = 0
KCA2 140713Z 31008KT 11/M02 A3016 RMK A01 T01101020  RH  040%=      5-min Rain = 0
KCA2 140714Z 31007KT 11/M02 A3016 RMK A01 T01101019  RH  040%=      5-min Rain = 0
KCA2 140715Z 30008KT 11/M02 A3016 RMK A01 T01101019  RH  040%=      5-min Rain = 0
KCA2 140716Z 31007KT 11/M02 A3016 RMK A01 T01101019  RH  040%=      5-min Rain = 0
KCA2 140717Z 31007KT 11/M02 A3016 RMK A01 T01101020  RH  040%=      5-min Rain = 0
KCA2 140718Z 30007KT 11/M02 A3016 RMK A01 T01101020  RH  040%=      5-min Rain = 0
KCA2 140719Z 30007KT 11/M02 A3016 RMK A01 T01101020  RH  040%=      5-min Rain = 0
KCA2 140720Z 30006KT 11/M02 A3016 RMK A01 T01101020  RH  040%=      5-min Rain = 0
KCA2 140721Z 31006KT 11/M02 A3016 RMK A01 T01101020  RH  040%=      5-min Rain = 0
KCA2 140722Z 30006KT 11/M02 A3016 RMK A01 T01101019  RH  040%=      5-min Rain = 0
KCA2 140723Z 31006KT 11/M02 A3016 RMK A01 T01091020  RH  040%=      5-min Rain = 0
KCA2 140724Z 31007KT 11/M02 A3016 RMK A01 T01091020  RH  041%=      5-min Rain = 0
KCA2 140725Z 31007KT 11/M02 A3016 RMK A01 T01091020  RH  041%=      5-min Rain = 0
KCA2 140726Z 31007KT 11/M02 A3016 RMK A01 T01091020  RH  040%=      5-min Rain = 0
KCA2 140727Z 31006KT 11/M02 A3016 RMK A01 T01101020  RH  040%=      5-min Rain = 0
KCA2 140728Z 30005KT 11/M02 A3016 RMK A01 T01091020  RH  040%=      5-min Rain = 0
KCA2 140729Z 31006KT 11/M02 A3016 RMK A01 T01071021  RH  041%=      5-min Rain = 0
KCA2 140730Z 31005KT 11/M02 A3016 RMK A01 T01071020  RH  041%=      5-min Rain = 0
KCA2 140731Z 31006KT 11/M02 A3016 RMK A01 T01071020  RH  041%=      5-min Rain = 0
KCA2 140732Z 31006KT 11/M02 A3016 RMK A01 T01071020  RH  041%=      5-min Rain = 0
KCA2 140733Z 32006KT 11/M02 A3016 RMK A01 T01071020  RH  041%=      5-min Rain = 0
KCA2 140734Z 32006KT 11/M02 A3016 RMK A01 T01081020  RH  041%=      5-min Rain = 0
KCA2 140735Z 31006KT 11/M02 A3016 RMK A01 T01081020  RH  041%=      5-min Rain = 0
KCA2 140736Z 32006KT 11/M02 A3016 RMK A01 T01081020  RH  041%=      5-min Rain = 0
KCA2 140737Z 32006KT 11/M02 A3016 RMK A01 T01091019  RH  041%=      5-min Rain = 0
KCA2 140738Z 34004KT 11/M02 A3016 RMK A01 T01091020  RH  040%=      5-min Rain = 0
KCA2 140739Z 35004KT 11/M02 A3016 RMK A01 T01061022  RH  041%=      5-min Rain = 0
KCA2 140740Z 34004KT 10/M02 A3016 RMK A01 T01041022  RH  041%=      5-min Rain = 0
KCA2 140741Z 35005KT 10/M02 A3016 RMK A01 T01011023  RH  042%=      5-min Rain = 0
KCA2 140742Z 34005KT 10/M02 A3016 RMK A01 T01011022  RH  042%=      5-min Rain = 0
KCA2 140743Z 34005KT 10/M02 A3016 RMK A01 T01001022  RH  042%=      5-min Rain = 0
KCA2 140744Z 34005KT 10/M02 A3016 RMK A01 T01001022  RH  043%=      5-min Rain = 0
KCA2 140745Z 34005KT 10/M02 A3016 RMK A01 T01001021  RH  043%=      5-min Rain = 0
KCA2 140746Z 33005KT 10/M02 A3016 RMK A01 T00991021  RH  043%=      5-min Rain = 0
KCA2 140747Z 33005KT 10/M02 A3016 RMK A01 T00991021  RH  043%=      5-min Rain = 0
KCA2 140748Z 33005KT 10/M02 A3016 RMK A01 T00991021  RH  043%=      5-min Rain = 0
KCA2 140749Z 32006KT 10/M02 A3016 RMK A01 T00991021  RH  043%=      5-min Rain = 0
KCA2 140750Z 33005KT 10/M02 A3016 RMK A01 T00991021  RH  043%=      5-min Rain = 0
KCA2 140751Z 32005KT 10/M02 A3016 RMK A01 T00981021  RH  043%=      5-min Rain = 0
KCA2 140752Z 32006KT 10/M02 A3016 RMK A01 T00981021  RH  043%=      5-min Rain = 0
KCA2 140753Z 33004KT 10/M02 A3016 RMK A01 T00981021  RH  043%=      5-min Rain = 0
KCA2 140754Z 34004KT 10/M02 A3016 RMK A01 T00981021  RH  043%=      5-min Rain = 0
KCA2 140755Z 34004KT 10/M02 A3016 RMK A01 T00961022  RH  043%=      5-min Rain = 0
KCA2 140756Z 34005KT 10/M02 A3016 RMK A01 T00961022  RH  044%=      5-min Rain = 0
KCA2 140757Z 34005KT 10/M02 A3016 RMK A01 T00961022  RH  044%=      5-min Rain = 0
KCA2 140758Z 34005KT 10/M02 A3016 RMK A01 T00961022  RH  044%=      5-min Rain = 0
KCA2 140759Z 34005KT 10/M02 A3016 RMK A01 T00961022  RH  044%=      5-min Rain = 0
KCA2 140800Z 34005KT 10/M02 A3016 RMK A01 T00961022  RH  044%=      5-min Rain = 0
KCA2 140801Z 34006KT 10/M02 A3017 RMK A01 T00961022  RH  044%=      5-min Rain = 0
KCA2 140802Z 34005KT 10/M02 A3017 RMK A01 T00961021  RH  044%=      5-min Rain = 0
KCA2 140803Z 34005KT 10/M02 A3017 RMK A01 T00971021  RH  044%=      5-min Rain = 0
KCA2 140804Z 34006KT 10/M02 A3017 RMK A01 T00961022  RH  044%=      5-min Rain = 0
KCA2 140805Z 34006KT 10/M02 A3017 RMK A01 T00971021  RH  044%=      5-min Rain = 0
KCA2 140806Z 33006KT 10/M02 A3017 RMK A01 T00961021  RH  044%=      5-min Rain = 0
KCA2 140807Z 34005KT 10/M02 A3017 RMK A01 T00961021  RH  044%=      5-min Rain = 0
KCA2 140808Z 34005KT 10/M02 A3017 RMK A01 T00961022  RH  044%=      5-min Rain = 0
KCA2 140809Z 33005KT 10/M02 A3017 RMK A01 T00951022  RH  044%=      5-min Rain = 0
KCA2 140810Z 34005KT 10/M02 A3017 RMK A01 T00951022  RH  044%=      5-min Rain = 0
KCA2 140811Z 34005KT 09/M02 A3017 RMK A01 T00941022  RH  044%=      5-min Rain = 0
KCA2 140812Z 34005KT 09/M02 A3017 RMK A01 T00941022  RH  044%=      5-min Rain = 0
KCA2 140813Z 35004KT 09/M02 A3017 RMK A01 T00941022  RH  044%=      5-min Rain = 0
KCA2 140814Z 35004KT 09/M02 A3017 RMK A01 T00941022  RH  044%=      5-min Rain = 0
KCA2 140815Z 36005KT 09/M02 A3017 RMK A01 T00931022  RH  044%=      5-min Rain = 0
KCA2 140816Z 00004KT 09/M02 A3017 RMK A01 T00901023  RH  045%=      5-min Rain = 0
KCA2 140817Z 01005KT 09/M02 A3017 RMK A01 T00891023  RH  045%=      5-min Rain = 0
KCA2 140818Z 01005KT 09/M02 A3017 RMK A01 T00881023  RH  046%=      5-min Rain = 0
KCA2 140819Z 00004KT 09/M02 A3017 RMK A01 T00881023  RH  046%=      5-min Rain = 0
KCA2 140820Z 00004KT 09/M02 A3017 RMK A01 T00871023  RH  046%=      5-min Rain = 0
KCA2 140821Z 35005KT 09/M02 A3017 RMK A01 T00871023  RH  046%=      5-min Rain = 0
KCA2 140822Z 35005KT 09/M02 A3017 RMK A01 T00881022  RH  046%=      5-min Rain = 0
KCA2 140823Z 34005KT 09/M02 A3017 RMK A01 T00901022  RH  046%=      5-min Rain = 0
KCA2 140824Z 34006KT 09/M02 A3017 RMK A01 T00911021  RH  045%=      5-min Rain = 0
KCA2 140825Z 33006KT 09/M02 A3017 RMK A01 T00931021  RH  045%=      5-min Rain = 0
KCA2 140826Z 33007KT 09/M02 A3017 RMK A01 T00941022  RH  044%=      5-min Rain = 0
KCA2 140827Z 33006KT 10/M02 A3017 RMK A01 T00951022  RH  044%=      5-min Rain = 0
KCA2 140828Z 33005KT 10/M02 A3017 RMK A01 T00951022  RH  044%=      5-min Rain = 0
KCA2 140829Z 33005KT 09/M02 A3017 RMK A01 T00941023  RH  044%=      5-min Rain = 0
KCA2 140830Z 33005KT 09/M02 A3017 RMK A01 T00941023  RH  044%=      5-min Rain = 0
KCA2 140831Z 33006KT 09/M02 A3017 RMK A01 T00941023  RH  044%=      5-min Rain = 0
KCA2 140832Z 32006KT 09/M02 A3017 RMK A01 T00941023  RH  044%=      5-min Rain = 0
KCA2 140833Z 32005KT 09/M02 A3018 RMK A01 T00941022  RH  044%=      5-min Rain = 0
KCA2 140834Z 32004KT 09/M02 A3018 RMK A01 T00941022  RH  044%=      5-min Rain = 0
KCA2 140835Z 34004KT 09/M02 A3018 RMK A01 T00941022  RH  044%=      5-min Rain = 0
KCA2 140836Z 34004KT 09/M02 A3018 RMK A01 T00941022  RH  044%=      5-min Rain = 0
KCA2 140837Z 34004KT 10/M02 A3018 RMK A01 T00951022  RH  044%=      5-min Rain = 0
KCA2 140838Z 34004KT 09/M02 A3018 RMK A01 T00941022  RH  044%=      5-min Rain = 0
KCA2 140839Z 33004KT 09/M02 A3018 RMK A01 T00931023  RH  044%=      5-min Rain = 0
KCA2 140840Z 34004KT 09/M02 A3018 RMK A01 T00931023  RH  044%=      5-min Rain = 0
KCA2 140841Z 33004KT 09/M02 A3018 RMK A01 T00921024  RH  044%=      5-min Rain = 0
KCA2 140842Z 33004KT 09/M03 A3018 RMK A01 T00901025  RH  045%=      5-min Rain = 0
KCA2 140843Z 33003KT 09/M02 A3018 RMK A01 T00881024  RH  045%=      5-min Rain = 0
KCA2 140844Z 33003KT 09/M03 A3018 RMK A01 T00861025  RH  045%=      5-min Rain = 0
KCA2 140845Z 33003KT 08/M03 A3018 RMK A01 T00841025  RH  046%=      5-min Rain = 0
KCA2 140846Z 34003KT 08/M03 A3018 RMK A01 T00831025  RH  047%=      5-min Rain = 0
KCA2 140847Z 33004KT 08/M02 A3018 RMK A01 T00831024  RH  047%=      5-min Rain = 0
KCA2 140848Z 32004KT 08/M02 A3018 RMK A01 T00831024  RH  047%=      5-min Rain = 0
KCA2 140849Z 32004KT 08/M02 A3018 RMK A01 T00831024  RH  047%=      5-min Rain = 0
KCA2 140850Z 32004KT 08/M02 A3018 RMK A01 T00841023  RH  047%=      5-min Rain = 0
KCA2 140851Z 31005KT 08/M02 A3018 RMK A01 T00841024  RH  047%=      5-min Rain = 0
KCA2 140852Z 31005KT 08/M02 A3018 RMK A01 T00841024  RH  047%=      5-min Rain = 0
KCA2 140853Z 31004KT 08/M03 A3018 RMK A01 T00811026  RH  047%=      5-min Rain = 0
KCA2 140854Z 32004KT 08/M03 A3018 RMK A01 T00771027  RH  048%=      5-min Rain = 0
KCA2 140855Z 32003KT 08/M03 A3018 RMK A01 T00751027  RH  048%=      5-min Rain = 0
KCA2 140856Z 32004KT 07/M03 A3018 RMK A01 T00731027  RH  049%=      5-min Rain = 0
KCA2 140857Z 33004KT 07/M03 A3018 RMK A01 T00721026  RH  050%=      5-min Rain = 0
KCA2 140858Z 33004KT 07/M02 A3018 RMK A01 T00741024  RH  050%=      5-min Rain = 0
KCA2 140859Z 33004KT 08/M02 A3018 RMK A01 T00761024  RH  049%=      5-min Rain = 0
KCA2 140900Z 34004KT 08/M02 A3018 RMK A01 T00771024  RH  049%=      5-min Rain = 0
KCA2 140901Z 34003KT 08/M02 A3018 RMK A01 T00771024  RH  049%=      5-min Rain = 0
KCA2 140902Z 34003KT 08/M02 A3018 RMK A01 T00771024  RH  049%=      5-min Rain = 0
KCA2 140903Z 35003KT 08/M02 A3018 RMK A01 T00761024  RH  049%=      5-min Rain = 0
KCA2 140904Z 34003KT 08/M02 A3018 RMK A01 T00751024  RH  049%=      5-min Rain = 0
KCA2 140905Z 35003KT 07/M03 A3018 RMK A01 T00741025  RH  049%=      5-min Rain = 0
KCA2 140906Z 35003KT 07/M03 A3018 RMK A01 T00721027  RH  049%=      5-min Rain = 0
KCA2 140907Z 34004KT 07/M03 A3018 RMK A01 T00711027  RH  050%=      5-min Rain = 0
KCA2 140908Z 35004KT 07/M03 A3018 RMK A01 T00701027  RH  050%=      5-min Rain = 0
KCA2 140909Z 34004KT 07/M03 A3018 RMK A01 T00681028  RH  050%=      5-min Rain = 0
KCA2 140910Z 35005KT 07/M03 A3018 RMK A01 T00671028  RH  051%=      5-min Rain = 0
KCA2 140911Z 34005KT 07/M03 A3018 RMK A01 T00671026  RH  051%=      5-min Rain = 0
KCA2 140912Z 34006KT 07/M02 A3018 RMK A01 T00721023  RH  051%=      5-min Rain = 0
KCA2 140913Z 34005KT 08/M02 A3018 RMK A01 T00751022  RH  050%=      5-min Rain = 0
KCA2 140914Z 34005KT 08/M02 A3018 RMK A01 T00761023  RH  049%=      5-min Rain = 0
KCA2 140915Z 33005KT 08/M02 A3018 RMK A01 T00761024  RH  049%=      5-min Rain = 0
KCA2 140916Z 33006KT 07/M03 A3018 RMK A01 T00741026  RH  049%=      5-min Rain = 0
KCA2 140917Z 33006KT 07/M03 A3018 RMK A01 T00741025  RH  049%=      5-min Rain = 0
KCA2 140918Z 33006KT 08/M03 A3018 RMK A01 T00751025  RH  049%=      5-min Rain = 0
KCA2 140919Z 34005KT 08/M03 A3018 RMK A01 T00761025  RH  049%=      5-min Rain = 0
KCA2 140920Z 33005KT 08/M03 A3018 RMK A01 T00751025  RH  049%=      5-min Rain = 0
KCA2 140921Z 33006KT 08/M03 A3018 RMK A01 T00751025  RH  049%=      5-min Rain = 0
KCA2 140922Z 33005KT 07/M03 A3018 RMK A01 T00741026  RH  049%=      5-min Rain = 0
KCA2 140923Z 33006KT 07/M03 A3018 RMK A01 T00741026  RH  049%=      5-min Rain = 0
KCA2 140924Z 33006KT 07/M03 A3018 RMK A01 T00731026  RH  049%=      5-min Rain = 0
KCA2 140925Z 33006KT 07/M03 A3018 RMK A01 T00731026  RH  050%=      5-min Rain = 0
KCA2 140926Z 33006KT 07/M03 A3018 RMK A01 T00731026  RH  050%=      5-min Rain = 0
KCA2 140927Z 33006KT 07/M03 A3018 RMK A01 T00731026  RH  049%=      5-min Rain = 0
KCA2 140928Z 34005KT 07/M03 A3018 RMK A01 T00741026  RH  049%=      5-min Rain = 0
KCA2 140929Z 33005KT 08/M03 A3018 RMK A01 T00751025  RH  049%=      5-min Rain = 0
KCA2 140930Z 33005KT 08/M03 A3018 RMK A01 T00751025  RH  049%=      5-min Rain = 0
KCA2 140931Z 33005KT 08/M03 A3018 RMK A01 T00751026  RH  049%=      5-min Rain = 0
KCA2 140932Z 33005KT 08/M03 A3018 RMK A01 T00751026  RH  049%=      5-min Rain = 0
KCA2 140933Z 33004KT 07/M03 A3018 RMK A01 T00741026  RH  049%=      5-min Rain = 0
KCA2 140934Z 33004KT 07/M03 A3018 RMK A01 T00741027  RH  049%=      5-min Rain = 0
KCA2 140935Z 33004KT 07/M03 A3019 RMK A01 T00731027  RH  049%=      5-min Rain = 0
KCA2 140936Z 33004KT 07/M03 A3019 RMK A01 T00721027  RH  049%=      5-min Rain = 0
KCA2 140937Z 33004KT 07/M03 A3019 RMK A01 T00721027  RH  049%=      5-min Rain = 0
KCA2 140938Z 33004KT 07/M03 A3019 RMK A01 T00711027  RH  050%=      5-min Rain = 0
KCA2 140939Z 33004KT 07/M03 A3019 RMK A01 T00701027  RH  050%=      5-min Rain = 0
KCA2 140940Z 33004KT 07/M03 A3019 RMK A01 T00701028  RH  050%=      5-min Rain = 0
KCA2 140941Z 33005KT 07/M03 A3019 RMK A01 T00691027  RH  050%=      5-min Rain = 0
KCA2 140942Z 32004KT 07/M03 A3019 RMK A01 T00701027  RH  050%=      5-min Rain = 0
KCA2 140943Z 32004KT 07/M03 A3019 RMK A01 T00701027  RH  050%=      5-min Rain = 0
KCA2 140944Z 32005KT 07/M03 A3019 RMK A01 T00701027  RH  050%=      5-min Rain = 0
KCA2 140945Z 31005KT 07/M03 A3019 RMK A01 T00701027  RH  050%=      5-min Rain = 0
KCA2 140946Z 31004KT 07/M03 A3018 RMK A01 T00711026  RH  050%=      5-min Rain = 0
KCA2 140947Z 32005KT 07/M03 A3018 RMK A01 T00711026  RH  050%=      5-min Rain = 0
KCA2 140948Z 31005KT 07/M03 A3018 RMK A01 T00711027  RH  050%=      5-min Rain = 0
KCA2 140949Z 31005KT 07/M03 A3018 RMK A01 T00691028  RH  050%=      5-min Rain = 0
KCA2 140950Z 31005KT 07/M03 A3018 RMK A01 T00681028  RH  050%=      5-min Rain = 0
KCA2 140951Z 31005KT 07/M03 A3018 RMK A01 T00681027  RH  051%=      5-min Rain = 0
KCA2 140952Z 31005KT 07/M03 A3018 RMK A01 T00691026  RH  051%=      5-min Rain = 0
KCA2 140953Z 32005KT 07/M03 A3018 RMK A01 T00701026  RH  051%=      5-min Rain = 0
KCA2 140954Z 32006KT 07/M03 A3018 RMK A01 T00711025  RH  050%=      5-min Rain = 0
KCA2 140955Z 32006KT 07/M03 A3018 RMK A01 T00721025  RH  050%=      5-min Rain = 0
KCA2 140956Z 33006KT 07/M02 A3018 RMK A01 T00731024  RH  050%=      5-min Rain = 0
KCA2 140957Z 33006KT 07/M03 A3019 RMK A01 T00741025  RH  050%=      5-min Rain = 0
KCA2 140958Z 34005KT 07/M03 A3019 RMK A01 T00741025  RH  049%=      5-min Rain = 0
KCA2 140959Z 34005KT 07/M03 A3019 RMK A01 T00741025  RH  049%=      5-min Rain = 0
KCA2 141000Z 34004KT 07/M03 A3019 RMK A01 T00741025  RH  049%=      5-min Rain = 0
KCA2 141001Z 36003KT 07/M03 A3019 RMK A01 T00741025  RH  049%=      5-min Rain = 0
KCA2 141002Z 00002KT 07/M02 A3019 RMK A01 T00741024  RH  049%=      5-min Rain = 0
KCA2 141003Z 36003KT 07/M03 A3019 RMK A01 T00731026  RH  049%=      5-min Rain = 0
KCA2 141004Z 00003KT 07/M03 A3019 RMK A01 T00721026  RH  050%=      5-min Rain = 0
KCA2 141005Z 00003KT 07/M03 A3019 RMK A01 T00711026  RH  050%=      5-min Rain = 0
KCA2 141006Z 35003KT 07/M03 A3019 RMK A01 T00701026  RH  051%=      5-min Rain = 0
KCA2 141007Z 34003KT 07/M03 A3019 RMK A01 T00701025  RH  051%=      5-min Rain = 0
KCA2 141008Z 34003KT 07/M03 A3019 RMK A01 T00701025  RH  051%=      5-min Rain = 0
KCA2 141009Z 34004KT 07/M03 A3019 RMK A01 T00701025  RH  051%=      5-min Rain = 0
KCA2 141010Z 34004KT 07/M03 A3019 RMK A01 T00711025  RH  051%=      5-min Rain = 0
KCA2 141011Z 34003KT 07/M02 A3019 RMK A01 T00711024  RH  051%=      5-min Rain = 0
KCA2 141012Z 34003KT 07/M02 A3019 RMK A01 T00711024  RH  051%=      5-min Rain = 0
KCA2 141013Z 34002KT 07/M03 A3019 RMK A01 T00701026  RH  050%=      5-min Rain = 0
KCA2 141014Z 34003KT 07/M03 A3019 RMK A01 T00671028  RH  051%=      5-min Rain = 0
KCA2 141015Z 35003KT 07/M03 A3019 RMK A01 T00671026  RH  051%=      5-min Rain = 0
KCA2 141016Z 35003KT 07/M02 A3019 RMK A01 T00681024  RH  052%=      5-min Rain = 0
KCA2 141017Z 34004KT 07/M02 A3019 RMK A01 T00701024  RH  051%=      5-min Rain = 0
KCA2 141018Z 34004KT 07/M02 A3019 RMK A01 T00711024  RH  051%=      5-min Rain = 0
KCA2 141019Z 34004KT 07/M02 A3019 RMK A01 T00711024  RH  051%=      5-min Rain = 0
KCA2 141020Z 34004KT 07/M02 A3019 RMK A01 T00711024  RH  051%=      5-min Rain = 0
KCA2 141021Z 34004KT 07/M02 A3019 RMK A01 T00711024  RH  051%=      5-min Rain = 0
KCA2 141022Z 35003KT 07/M03 A3019 RMK A01 T00701025  RH  051%=      5-min Rain = 0
KCA2 141023Z 35003KT 07/M02 A3019 RMK A01 T00701024  RH  051%=      5-min Rain = 0
KCA2 141024Z 01001KT 07/M03 A3019 RMK A01 T00701026  RH  051%=      5-min Rain = 0
KCA2 141025Z 05000KT 07/M03 A3019 RMK A01 T00661029  RH  051%=      5-min Rain = 0
KCA2 141026Z 02000KT 06/M03 A3019 RMK A01 T00621030  RH  051%=      5-min Rain = 0
KCA2 141027Z 34001KT 06/M03 A3019 RMK A01 T00611030  RH  052%=      5-min Rain = 0
KCA2 141028Z 34002KT 06/M03 A3019 RMK A01 T00601029  RH  053%=      5-min Rain = 0
KCA2 141029Z 33002KT 06/M03 A3019 RMK A01 T00591028  RH  053%=      5-min Rain = 0
KCA2 141030Z 30002KT 06/M03 A3019 RMK A01 T00591028  RH  054%=      5-min Rain = 0
KCA2 141031Z 31002KT 06/M03 A3018 RMK A01 T00581028  RH  054%=      5-min Rain = 0
KCA2 141032Z 31002KT 06/M03 A3018 RMK A01 T00561029  RH  054%=      5-min Rain = 0
KCA2 141033Z 08000KT 06/M03 A3018 RMK A01 T00551028  RH  055%=      5-min Rain = 0
KCA2 141034Z 09003KT 05/M03 A3018 RMK A01 T00541029  RH  055%=      5-min Rain = 0
KCA2 141035Z 07003KT 05/M03 A3018 RMK A01 T00521030  RH  055%=      5-min Rain = 0
KCA2 141036Z 04002KT 05/M03 A3018 RMK A01 T00521029  RH  056%=      5-min Rain = 0
KCA2 141037Z 02002KT 05/M03 A3018 RMK A01 T00541027  RH  056%=      5-min Rain = 0
KCA2 141038Z 02002KT 06/M03 A3018 RMK A01 T00571026  RH  055%=      5-min Rain = 0
KCA2 141039Z 35001KT 06/M02 A3018 RMK A01 T00601024  RH  055%=      5-min Rain = 0
KCA2 141040Z 34002KT 06/M02 A3018 RMK A01 T00641023  RH  054%=      5-min Rain = 0
KCA2 141041Z 34002KT 07/M02 A3018 RMK A01 T00661023  RH  053%=      5-min Rain = 0
KCA2 141042Z 34001KT 07/M02 A3018 RMK A01 T00671024  RH  052%=      5-min Rain = 0
KCA2 141043Z 36002KT 07/M02 A3018 RMK A01 T00681024  RH  052%=      5-min Rain = 0
KCA2 141044Z 35002KT 07/M02 A3018 RMK A01 T00681024  RH  052%=      5-min Rain = 0
KCA2 141045Z 34002KT 07/M02 A3018 RMK A01 T00691024  RH  052%=      5-min Rain = 0
KCA2 141046Z 34002KT 07/M02 A3018 RMK A01 T00691024  RH  051%=      5-min Rain = 0
KCA2 141047Z 33003KT 07/M03 A3018 RMK A01 T00691025  RH  051%=      5-min Rain = 0
KCA2 141048Z 32003KT 07/M03 A3018 RMK A01 T00681025  RH  051%=      5-min Rain = 0
KCA2 141049Z 32003KT 07/M03 A3018 RMK A01 T00671026  RH  052%=      5-min Rain = 0
KCA2 141050Z 32004KT 07/M03 A3018 RMK A01 T00661026  RH  052%=      5-min Rain = 0
KCA2 141051Z 31004KT 06/M03 A3018 RMK A01 T00641027  RH  052%=      5-min Rain = 0
KCA2 141052Z 32004KT 06/M03 A3018 RMK A01 T00611028  RH  053%=      5-min Rain = 0
KCA2 141053Z 32003KT 06/M03 A3019 RMK A01 T00611027  RH  053%=      5-min Rain = 0
KCA2 141054Z 33002KT 06/M03 A3019 RMK A01 T00601028  RH  053%=      5-min Rain = 0
KCA2 141055Z 34002KT 06/M03 A3019 RMK A01 T00591028  RH  054%=      5-min Rain = 0
KCA2 141056Z 03002KT 06/M03 A3019 RMK A01 T00571029  RH  054%=      5-min Rain = 0
KCA2 141057Z 33003KT 06/M03 A3019 RMK A01 T00561028  RH  054%=      5-min Rain = 0
KCA2 141058Z 31004KT 06/M03 A3019 RMK A01 T00591026  RH  055%=      5-min Rain = 0
KCA2 141059Z 30004KT 06/M02 A3019 RMK A01 T00631024  RH  054%=      5-min Rain = 0
KCA2 141100Z 30004KT 06/M03 A3019 RMK A01 T00621028  RH  053%=      5-min Rain = 0
KCA2 141101Z 31004KT 06/M03 A3019 RMK A01 T00561032  RH  053%=      5-min Rain = 0
KCA2 141102Z 32003KT 05/M03 A3019 RMK A01 T00531031  RH  055%=      5-min Rain = 0
KCA2 141103Z 32003KT 05/M03 A3019 RMK A01 T00531029  RH  056%=      5-min Rain = 0
KCA2 141104Z 00002KT 05/M03 A3019 RMK A01 T00531028  RH  056%=      5-min Rain = 0
KCA2 141105Z 07003KT 05/M03 A3019 RMK A01 T00531032  RH  054%=      5-min Rain = 0
KCA2 141106Z 04002KT 05/M03 A3019 RMK A01 T00501033  RH  055%=      5-min Rain = 0
KCA2 141107Z 33002KT 05/M03 A3019 RMK A01 T00501030  RH  056%=      5-min Rain = 0
KCA2 141108Z 34003KT 06/M03 A3019 RMK A01 T00551025  RH  056%=      5-min Rain = 0
KCA2 141109Z 32003KT 06/M02 A3019 RMK A01 T00601024  RH  055%=      5-min Rain = 0
KCA2 141110Z 30003KT 06/M03 A3019 RMK A01 T00611026  RH  054%=      5-min Rain = 0
KCA2 141111Z 30003KT 06/M03 A3019 RMK A01 T00601027  RH  054%=      5-min Rain = 0
KCA2 141112Z 30003KT 06/M03 A3019 RMK A01 T00571030  RH  054%=      5-min Rain = 0
KCA2 141113Z 31003KT 06/M03 A3019 RMK A01 T00551029  RH  055%=      5-min Rain = 0
KCA2 141114Z 32003KT 05/M03 A3019 RMK A01 T00541027  RH  056%=      5-min Rain = 0
KCA2 141115Z 33003KT 05/M03 A3019 RMK A01 T00541027  RH  056%=      5-min Rain = 0
KCA2 141116Z 33003KT 06/M03 A3019 RMK A01 T00551027  RH  055%=      5-min Rain = 0
KCA2 141117Z 34003KT 06/M03 A3019 RMK A01 T00571027  RH  055%=      5-min Rain = 0
KCA2 141118Z 34003KT 06/M03 A3019 RMK A01 T00571028  RH  054%=      5-min Rain = 0
KCA2 141119Z 33004KT 06/M03 A3019 RMK A01 T00571027  RH  055%=      5-min Rain = 0
KCA2 141120Z 33004KT 06/M03 A3019 RMK A01 T00591026  RH  054%=      5-min Rain = 0
KCA2 141121Z 32004KT 06/M03 A3019 RMK A01 T00621025  RH  054%=      5-min Rain = 0
KCA2 141122Z 33004KT 06/M03 A3019 RMK A01 T00641025  RH  053%=      5-min Rain = 0
KCA2 141123Z 34004KT 07/M03 A3019 RMK A01 T00651025  RH  052%=      5-min Rain = 0
KCA2 141124Z 36004KT 07/M03 A3019 RMK A01 T00651026  RH  052%=      5-min Rain = 0
KCA2 141125Z 01004KT 07/M03 A3019 RMK A01 T00651027  RH  052%=      5-min Rain = 0
KCA2 141126Z 00004KT 06/M03 A3019 RMK A01 T00631027  RH  052%=      5-min Rain = 0
KCA2 141127Z 00004KT 06/M03 A3019 RMK A01 T00621028  RH  053%=      5-min Rain = 0
KCA2 141128Z 35003KT 06/M03 A3019 RMK A01 T00611028  RH  053%=      5-min Rain = 0
KCA2 141129Z 29002KT 06/M03 A3019 RMK A01 T00581030  RH  053%=      5-min Rain = 0
KCA2 141130Z 30002KT 06/M03 A3019 RMK A01 T00561031  RH  054%=      5-min Rain = 0
KCA2 141131Z 31003KT 06/M03 A3019 RMK A01 T00561030  RH  054%=      5-min Rain = 0
KCA2 141132Z 28003KT 06/M03 A3019 RMK A01 T00551030  RH  054%=      5-min Rain = 0
KCA2 141133Z 30002KT 05/M03 A3019 RMK A01 T00541031  RH  054%=      5-min Rain = 0
KCA2 141134Z 30002KT 05/M03 A3019 RMK A01 T00531030  RH  055%=      5-min Rain = 0
KCA2 141135Z 32001KT 05/M03 A3019 RMK A01 T00531030  RH  055%=      5-min Rain = 0
KCA2 141136Z 33000KT 05/M03 A3019 RMK A01 T00531030  RH  055%=      5-min Rain = 0
KCA2 141137Z 03001KT 05/M03 A3019 RMK A01 T00531030  RH  055%=      5-min Rain = 0
KCA2 141138Z 02002KT 05/M03 A3019 RMK A01 T00531030  RH  055%=      5-min Rain = 0
KCA2 141139Z 36002KT 05/M03 A3019 RMK A01 T00531029  RH  055%=      5-min Rain = 0
KCA2 141140Z 36003KT 06/M03 A3019 RMK A01 T00551027  RH  056%=      5-min Rain = 0
KCA2 141141Z 34004KT 06/M03 A3019 RMK A01 T00581026  RH  055%=      5-min Rain = 0
KCA2 141142Z 33005KT 06/M02 A3019 RMK A01 T00611024  RH  054%=      5-min Rain = 0
KCA2 141143Z 33005KT 06/M03 A3019 RMK A01 T00641025  RH  053%=      5-min Rain = 0
KCA2 141144Z 34004KT 06/M03 A3019 RMK A01 T00641025  RH  053%=      5-min Rain = 0
KCA2 141145Z 01002KT 07/M03 A3019 RMK A01 T00651025  RH  053%=      5-min Rain = 0
KCA2 141146Z 07004KT 06/M03 A3019 RMK A01 T00631029  RH  052%=      5-min Rain = 0
KCA2 141147Z 07003KT 06/M04 A3019 RMK A01 T00561035  RH  052%=      5-min Rain = 0
KCA2 141148Z 05003KT 05/M04 A3019 RMK A01 T00501036  RH  054%=      5-min Rain = 0
KCA2 141149Z 02003KT 05/M03 A3019 RMK A01 T00471034  RH  056%=      5-min Rain = 0
KCA2 141150Z 36002KT 05/M03 A3019 RMK A01 T00471032  RH  057%=      5-min Rain = 0
KCA2 141151Z 34003KT 05/M03 A3019 RMK A01 T00481030  RH  057%=      5-min Rain = 0
KCA2 141152Z 33004KT 05/M03 A3019 RMK A01 T00501029  RH  057%=      5-min Rain = 0
KCA2 141153Z 33004KT 05/M03 A3019 RMK A01 T00511029  RH  056%=      5-min Rain = 0
KCA2 141154Z 32003KT 05/M03 A3019 RMK A01 T00521028  RH  056%=      5-min Rain = 0
KCA2 141155Z 33003KT 05/M03 A3019 RMK A01 T00521029  RH  056%=      5-min Rain = 0
KCA2 141156Z 32002KT 05/M03 A302 RMK A01 T00511030  RH  056%=      5-min Rain = 0
KCA2 141157Z 04001KT 05/M03 A302 RMK A01 T00501030  RH  056%=      5-min Rain = 0
KCA2 141158Z 01000KT 05/M03 A302 RMK A01 T00491031  RH  056%=      5-min Rain = 0
KCA2 141159Z 29001KT 05/M03 A302 RMK A01 T00481032  RH  056%=      5-min Rain = 0
KCA2 141200Z 28002KT 05/M03 A302 RMK A01 T00471033  RH  056%=      5-min Rain = 0
KCA2 141201Z 28003KT 05/M03 A302 RMK A01 T00451032  RH  057%=      5-min Rain = 0
KCA2 141202Z 28003KT 05/M03 A302 RMK A01 T00461030  RH  058%=      5-min Rain = 0
KCA2 141203Z 27003KT 05/M03 A302 RMK A01 T00461032  RH  057%=      5-min Rain = 0
KCA2 141204Z 25002KT 04/M04 A302 RMK A01 T00431035  RH  057%=      5-min Rain = 0
KCA2 141205Z 23002KT 04/M03 A302 RMK A01 T00401033  RH  059%=      5-min Rain = 0
KCA2 141206Z 24001KT 04/M03 A302 RMK A01 T00401033  RH  059%=      5-min Rain = 0
KCA2 141207Z 25001KT 04/M03 A302 RMK A01 T00401032  RH  060%=      5-min Rain = 0
KCA2 141208Z 26001KT 04/M03 A302 RMK A01 T00411031  RH  060%=      5-min Rain = 0
KCA2 141209Z 25002KT 04/M03 A302 RMK A01 T00431029  RH  059%=      5-min Rain = 0
KCA2 141210Z 24002KT 05/M03 A302 RMK A01 T00461029  RH  058%=      5-min Rain = 0
KCA2 141211Z 26002KT 05/M03 A302 RMK A01 T00481029  RH  057%=      5-min Rain = 0
KCA2 141212Z 28002KT 05/M03 A302 RMK A01 T00501028  RH  057%=      5-min Rain = 0
KCA2 141213Z 26003KT 05/M03 A302 RMK A01 T00511028  RH  056%=      5-min Rain = 0
KCA2 141214Z 26003KT 05/M03 A302 RMK A01 T00501030  RH  056%=      5-min Rain = 0
KCA2 141215Z 25003KT 05/M03 A302 RMK A01 T00481031  RH  057%=      5-min Rain = 0
KCA2 141216Z 25002KT 05/M03 A302 RMK A01 T00471030  RH  057%=      5-min Rain = 0
KCA2 141217Z 24001KT 05/M03 A302 RMK A01 T00461030  RH  058%=      5-min Rain = 0
KCA2 141218Z 12001KT 05/M03 A302 RMK A01 T00451031  RH  058%=      5-min Rain = 0
KCA2 141219Z 13002KT 04/M03 A302 RMK A01 T00441032  RH  058%=      5-min Rain = 0
KCA2 141220Z 17001KT 04/M03 A302 RMK A01 T00431031  RH  058%=      5-min Rain = 0
KCA2 141221Z 23001KT 04/M03 A302 RMK A01 T00441030  RH  058%=      5-min Rain = 0
KCA2 141222Z 25002KT 05/M03 A302 RMK A01 T00461030  RH  058%=      5-min Rain = 0
KCA2 141223Z 26002KT 05/M03 A302 RMK A01 T00471030  RH  058%=      5-min Rain = 0
KCA2 141224Z 26002KT 05/M03 A302 RMK A01 T00481029  RH  057%=      5-min Rain = 0
KCA2 141225Z 28002KT 05/M03 A302 RMK A01 T00481030  RH  057%=      5-min Rain = 0
KCA2 141226Z 28001KT 05/M03 A302 RMK A01 T00461031  RH  057%=      5-min Rain = 0
KCA2 141227Z 28000KT 05/M03 A302 RMK A01 T00451030  RH  058%=      5-min Rain = 0
KCA2 141228Z 08001KT 04/M03 A302 RMK A01 T00431033  RH  057%=      5-min Rain = 0
KCA2 141229Z 10002KT 04/M04 A3021 RMK A01 T00391039  RH  057%=      5-min Rain = 0
KCA2 141230Z 12002KT 04/M04 A3021 RMK A01 T00371036  RH  059%=      5-min Rain = 0
KCA2 141231Z 13001KT 04/M03 A3021 RMK A01 T00381033  RH  060%=      5-min Rain = 0
KCA2 141232Z 31001KT 04/M03 A3021 RMK A01 T00391032  RH  060%=      5-min Rain = 0
KCA2 141233Z 30002KT 04/M03 A3021 RMK A01 T00411030  RH  060%=      5-min Rain = 0
KCA2 141234Z 32002KT 05/M03 A3021 RMK A01 T00461026  RH  060%=      5-min Rain = 0
KCA2 141235Z 32003KT 05/M02 A3021 RMK A01 T00541023  RH  058%=      5-min Rain = 0
KCA2 141236Z 30004KT 06/M02 A3021 RMK A01 T00581024  RH  056%=      5-min Rain = 0
KCA2 141237Z 30005KT 06/M03 A3021 RMK A01 T00581027  RH  055%=      5-min Rain = 0
KCA2 141238Z 29003KT 06/M03 A3021 RMK A01 T00561029  RH  055%=      5-min Rain = 0
KCA2 141239Z 31003KT 05/M03 A3021 RMK A01 T00531032  RH  054%=      5-min Rain = 0
KCA2 141240Z 30002KT 05/M03 A3021 RMK A01 T00511031  RH  056%=      5-min Rain = 0
KCA2 141241Z 02002KT 05/M03 A3021 RMK A01 T00491032  RH  056%=      5-min Rain = 0
KCA2 141242Z 03002KT 05/M03 A3021 RMK A01 T00471032  RH  056%=      5-min Rain = 0
KCA2 141243Z 02002KT 05/M03 A3021 RMK A01 T00451032  RH  057%=      5-min Rain = 0
KCA2 141244Z 01002KT 04/M03 A3021 RMK A01 T00441032  RH  058%=      5-min Rain = 0
KCA2 141245Z 35002KT 04/M03 A3021 RMK A01 T00441031  RH  058%=      5-min Rain = 0
KCA2 141246Z 33002KT 05/M03 A3021 RMK A01 T00451030  RH  058%=      5-min Rain = 0
KCA2 141247Z 33002KT 05/M03 A3021 RMK A01 T00471028  RH  058%=      5-min Rain = 0
KCA2 141248Z 32002KT 05/M03 A3021 RMK A01 T00501028  RH  057%=      5-min Rain = 0
KCA2 141249Z 32002KT 05/M03 A3021 RMK A01 T00511028  RH  057%=      5-min Rain = 0
KCA2 141250Z 31002KT 05/M03 A3021 RMK A01 T00531027  RH  056%=      5-min Rain = 0
KCA2 141251Z 30003KT 05/M03 A3021 RMK A01 T00541027  RH  056%=      5-min Rain = 0
KCA2 141252Z 30003KT 05/M03 A3021 RMK A01 T00541028  RH  055%=      5-min Rain = 0
KCA2 141253Z 30003KT 05/M03 A3021 RMK A01 T00531030  RH  055%=      5-min Rain = 0
KCA2 141254Z 30003KT 05/M03 A3021 RMK A01 T00511030  RH  056%=      5-min Rain = 0
KCA2 141255Z 31003KT 05/M03 A3021 RMK A01 T00501031  RH  056%=      5-min Rain = 0
KCA2 141256Z 30003KT 05/M03 A3021 RMK A01 T00491030  RH  056%=      5-min Rain = 0
KCA2 141257Z 30003KT 05/M03 A3022 RMK A01 T00491030  RH  057%=      5-min Rain = 0
KCA2 141258Z 31003KT 05/M03 A3022 RMK A01 T00501029  RH  056%=      5-min Rain = 0
KCA2 141259Z 31003KT 05/M03 A3022 RMK A01 T00501030  RH  056%=      5-min Rain = 0
KCA2 141300Z 31003KT 05/M03 A3022 RMK A01 T00511030  RH  056%=      5-min Rain = 0
KCA2 141301Z 31004KT 05/M03 A3022 RMK A01 T00511030  RH  056%=      5-min Rain = 0
KCA2 141302Z 30003KT 05/M03 A3022 RMK A01 T00501030  RH  056%=      5-min Rain = 0
KCA2 141303Z 30003KT 05/M03 A3022 RMK A01 T00491031  RH  056%=      5-min Rain = 0
KCA2 141304Z 30003KT 05/M03 A3022 RMK A01 T00481031  RH  056%=      5-min Rain = 0
KCA2 141305Z 29002KT 05/M03 A3022 RMK A01 T00471031  RH  057%=      5-min Rain = 0
KCA2 141306Z 29002KT 05/M03 A3022 RMK A01 T00471030  RH  057%=      5-min Rain = 0
KCA2 141307Z 31002KT 05/M03 A3022 RMK A01 T00471030  RH  057%=      5-min Rain = 0
KCA2 141308Z 35002KT 05/M03 A3022 RMK A01 T00471030  RH  057%=      5-min Rain = 0
KCA2 141309Z 00002KT 05/M03 A3022 RMK A01 T00461031  RH  057%=      5-min Rain = 0
KCA2 141310Z 35002KT 05/M03 A3022 RMK A01 T00461030  RH  057%=      5-min Rain = 0
KCA2 141311Z 34002KT 05/M03 A3022 RMK A01 T00471031  RH  057%=      5-min Rain = 0
KCA2 141312Z 32003KT 05/M03 A3022 RMK A01 T00471030  RH  057%=      5-min Rain = 0
KCA2 141313Z 31003KT 05/M03 A3022 RMK A01 T00481030  RH  057%=      5-min Rain = 0
KCA2 141314Z 31003KT 05/M03 A3022 RMK A01 T00491030  RH  057%=      5-min Rain = 0
KCA2 141315Z 31003KT 05/M03 A3022 RMK A01 T00491030  RH  057%=      5-min Rain = 0
KCA2 141316Z 30003KT 05/M03 A3022 RMK A01 T00491030  RH  057%=      5-min Rain = 0
KCA2 141317Z 31003KT 05/M03 A3022 RMK A01 T00481030  RH  057%=      5-min Rain = 0
KCA2 141318Z 31004KT 05/M03 A3022 RMK A01 T00471029  RH  058%=      5-min Rain = 0
KCA2 141319Z 31004KT 05/M03 A3023 RMK A01 T00471029  RH  058%=      5-min Rain = 0
KCA2 141320Z 31004KT 05/M03 A3023 RMK A01 T00471028  RH  058%=      5-min Rain = 0
KCA2 141321Z 31004KT 05/M03 A3023 RMK A01 T00481028  RH  058%=      5-min Rain = 0
KCA2 141322Z 32004KT 05/M03 A3023 RMK A01 T00481029  RH  058%=      5-min Rain = 0
KCA2 141323Z 32003KT 05/M03 A3023 RMK A01 T00471030  RH  057%=      5-min Rain = 0
KCA2 141324Z 31003KT 05/M03 A3023 RMK A01 T00461031  RH  057%=      5-min Rain = 0
KCA2 141325Z 31003KT 05/M03 A3023 RMK A01 T00451031  RH  058%=      5-min Rain = 0
KCA2 141326Z 31004KT 05/M03 A3023 RMK A01 T00451030  RH  058%=      5-min Rain = 0
KCA2 141327Z 31004KT 05/M03 A3023 RMK A01 T00451030  RH  058%=      5-min Rain = 0
KCA2 141328Z 30004KT 04/M03 A3023 RMK A01 T00441030  RH  059%=      5-min Rain = 0
KCA2 141329Z 31003KT 04/M03 A3023 RMK A01 T00441029  RH  059%=      5-min Rain = 0
KCA2 141330Z 31004KT 05/M03 A3023 RMK A01 T00451028  RH  059%=      5-min Rain = 0
KCA2 141331Z 32004KT 05/M03 A3023 RMK A01 T00461027  RH  059%=      5-min Rain = 0
KCA2 141332Z 31004KT 05/M02 A3023 RMK A01 T00481024  RH  060%=      5-min Rain = 0
KCA2 141333Z 31003KT 05/M03 A3023 RMK A01 T00501025  RH  059%=      5-min Rain = 0
KCA2 141334Z 31003KT 05/M03 A3023 RMK A01 T00501025  RH  058%=      5-min Rain = 0
KCA2 141335Z 30004KT 05/M03 A3023 RMK A01 T00501026  RH  058%=      5-min Rain = 0
KCA2 141336Z 30004KT 05/M03 A3023 RMK A01 T00511025  RH  058%=      5-min Rain = 0
KCA2 141337Z 31003KT 05/M03 A3023 RMK A01 T00511025  RH  058%=      5-min Rain = 0
KCA2 141338Z 30003KT 05/M03 A3023 RMK A01 T00511025  RH  058%=      5-min Rain = 0
KCA2 141339Z 31002KT 05/M03 A3023 RMK A01 T00511025  RH  058%=      5-min Rain = 0
KCA2 141340Z 30003KT 05/M03 A3023 RMK A01 T00511025  RH  058%=      5-min Rain = 0
KCA2 141341Z 33002KT 05/M03 A3023 RMK A01 T00511025  RH  058%=      5-min Rain = 0
KCA2 141342Z 33002KT 05/M03 A3023 RMK A01 T00511025  RH  058%=      5-min Rain = 0
KCA2 141343Z 33002KT 05/M03 A3023 RMK A01 T00511025  RH  058%=      5-min Rain = 0
KCA2 141344Z 33003KT 05/M02 A3024 RMK A01 T00521024  RH  058%=      5-min Rain = 0
KCA2 141345Z 32003KT 05/M02 A3024 RMK A01 T00521024  RH  058%=      5-min Rain = 0
KCA2 141346Z 33004KT 05/M02 A3024 RMK A01 T00521023  RH  058%=      5-min Rain = 0
KCA2 141347Z 33004KT 05/M02 A3024 RMK A01 T00521023  RH  059%=      5-min Rain = 0
KCA2 141348Z 34004KT 05/M02 A3024 RMK A01 T00521022  RH  059%=      5-min Rain = 0
KCA2 141349Z 33004KT 05/M02 A3024 RMK A01 T00521022  RH  059%=      5-min Rain = 0
KCA2 141350Z 32003KT 05/M02 A3024 RMK A01 T00521022  RH  059%=      5-min Rain = 0
KCA2 141351Z 33003KT 05/M02 A3024 RMK A01 T00521021  RH  059%=      5-min Rain = 0
KCA2 141352Z 33003KT 05/M02 A3024 RMK A01 T00531020  RH  060%=      5-min Rain = 0
KCA2 141353Z 33003KT 05/M02 A3024 RMK A01 T00531020  RH  059%=      5-min Rain = 0
KCA2 141354Z 33004KT 05/M02 A3024 RMK A01 T00541020  RH  059%=      5-min Rain = 0
KCA2 141355Z 33003KT 06/M02 A3024 RMK A01 T00551019  RH  059%=      5-min Rain = 0
KCA2 141356Z 33002KT 06/M02 A3025 RMK A01 T00551021  RH  058%=      5-min Rain = 0
KCA2 141357Z 32002KT 05/M02 A3025 RMK A01 T00541024  RH  057%=      5-min Rain = 0
KCA2 141358Z 33002KT 05/M02 A3025 RMK A01 T00541022  RH  058%=      5-min Rain = 0
KCA2 141359Z 32003KT 05/M02 A3025 RMK A01 T00541022  RH  058%=      5-min Rain = 0
KCA2 141400Z 33003KT 05/M02 A3025 RMK A01 T00541022  RH  058%=      5-min Rain = 0
KCA2 141401Z 33004KT 06/M02 A3025 RMK A01 T00551021  RH  058%=      5-min Rain = 0
KCA2 141402Z 32005KT 06/M02 A3025 RMK A01 T00561019  RH  059%=      5-min Rain = 0
KCA2 141403Z 31005KT 06/M02 A3025 RMK A01 T00571018  RH  059%=      5-min Rain = 0
KCA2 141404Z 31006KT 06/M02 A3025 RMK A01 T00581017  RH  059%=      5-min Rain = 0
KCA2 141405Z 30005KT 06/M02 A3025 RMK A01 T00581016  RH  059%=      5-min Rain = 0
KCA2 141406Z 31004KT 06/M02 A3025 RMK A01 T00591015  RH  059%=      5-min Rain = 0
KCA2 141407Z 30005KT 06/M01 A3025 RMK A01 T00601014  RH  059%=      5-min Rain = 0
KCA2 141408Z 30006KT 06/M01 A3025 RMK A01 T00601014  RH  059%=      5-min Rain = 0
KCA2 141409Z 30007KT 06/M01 A3025 RMK A01 T00601013  RH  059%=      5-min Rain = 0
KCA2 141410Z 31007KT 06/M01 A3025 RMK A01 T00611012  RH  060%=      5-min Rain = 0
KCA2 141411Z 31006KT 06/M01 A3025 RMK A01 T00611012  RH  060%=      5-min Rain = 0
KCA2 141412Z 31006KT 06/M01 A3025 RMK A01 T00621011  RH  060%=      5-min Rain = 0
KCA2 141413Z 30007KT 06/M01 A3025 RMK A01 T00621011  RH  060%=      5-min Rain = 0
KCA2 141414Z 31006KT 06/M01 A3025 RMK A01 T00631010  RH  059%=      5-min Rain = 0
KCA2 141415Z 30005KT 06/M01 A3025 RMK A01 T00641010  RH  059%=      5-min Rain = 0
KCA2 141416Z 30005KT 06/M01 A3025 RMK A01 T00641010  RH  059%=      5-min Rain = 0
KCA2 141417Z 31005KT 06/M01 A3025 RMK A01 T00641010  RH  059%=      5-min Rain = 0
KCA2 141418Z 29005KT 06/M01 A3025 RMK A01 T00641010  RH  059%=      5-min Rain = 0
KCA2 141419Z 29005KT 07/M01 A3025 RMK A01 T00651009  RH  059%=      5-min Rain = 0
KCA2 141420Z 29006KT 07/M01 A3025 RMK A01 T00651009  RH  059%=      5-min Rain = 0
KCA2 141421Z 29007KT 07/M01 A3025 RMK A01 T00651009  RH  059%=      5-min Rain = 0
KCA2 141422Z 29008KT 07/M01 A3025 RMK A01 T00661008  RH  059%=      5-min Rain = 0
KCA2 141423Z 29009KT 07/M01 A3025 RMK A01 T00671007  RH  059%=      5-min Rain = 0
KCA2 141424Z 29008KT 07/M01 A3025 RMK A01 T00671007  RH  059%=      5-min Rain = 0
KCA2 141425Z 29006KT 07/M01 A3025 RMK A01 T00681006  RH  059%=      5-min Rain = 0
KCA2 141426Z 29007KT 07/M01 A3025 RMK A01 T00681007  RH  059%=      5-min Rain = 0
KCA2 141427Z 29006KT 07/M01 A3026 RMK A01 T00691006  RH  059%=      5-min Rain = 0
KCA2 141428Z 29006KT 07/M01 A3026 RMK A01 T00701006  RH  058%=      5-min Rain = 0
KCA2 141429Z 29006KT 07/M01 A3026 RMK A01 T00711006  RH  058%=      5-min Rain = 0
KCA2 141430Z 30006KT 07/M01 A3026 RMK A01 T00711006  RH  058%=      5-min Rain = 0
KCA2 141431Z 29007KT 07/M01 A3026 RMK A01 T00721006  RH  058%=      5-min Rain = 0
KCA2 141432Z 29007KT 07/M01 A3026 RMK A01 T00721005  RH  058%=      5-min Rain = 0
KCA2 141433Z 30006KT 07/M01 A3026 RMK A01 T00731005  RH  058%=      5-min Rain = 0
KCA2 141434Z 29007KT 07/M01 A3026 RMK A01 T00731005  RH  057%=      5-min Rain = 0
KCA2 141435Z 29007KT 07/M01 A3026 RMK A01 T00731005  RH  057%=      5-min Rain = 0
KCA2 141436Z 30006KT 07/M01 A3026 RMK A01 T00731005  RH  058%=      5-min Rain = 0
KCA2 141437Z 30005KT 07/M00 A3026 RMK A01 T00741004  RH  058%=      5-min Rain = 0
KCA2 141438Z 29007KT 08/M00 A3026 RMK A01 T00751004  RH  057%=      5-min Rain = 0
KCA2 141439Z 29006KT 08/M00 A3026 RMK A01 T00751004  RH  057%=      5-min Rain = 0
KCA2 141440Z 28006KT 08/M00 A3026 RMK A01 T00761003  RH  057%=      5-min Rain = 0
KCA2 141441Z 29006KT 08/M00 A3026 RMK A01 T00761003  RH  057%=      5-min Rain = 0
KCA2 141442Z 30006KT 08/M00 A3026 RMK A01 T00761003  RH  057%=      5-min Rain = 0
KCA2 141443Z 29007KT 08/M00 A3026 RMK A01 T00771003  RH  057%=      5-min Rain = 0
KCA2 141444Z 29007KT 08/M00 A3026 RMK A01 T00771003  RH  057%=      5-min Rain = 0
KCA2 141445Z 29008KT 08/M00 A3026 RMK A01 T00781002  RH  057%=      5-min Rain = 0
KCA2 141446Z 29009KT 08/M00 A3026 RMK A01 T00781002  RH  057%=      5-min Rain = 0
KCA2 141447Z 29009KT 08/M00 A3026 RMK A01 T00781002  RH  057%=      5-min Rain = 0
KCA2 141448Z 29008KT 08/M00 A3026 RMK A01 T00781002  RH  057%=      5-min Rain = 0
KCA2 141449Z 29007KT 08/M00 A3026 RMK A01 T00791001  RH  057%=      5-min Rain = 0
KCA2 141450Z 29007KT 08/M00 A3026 RMK A01 T00791001  RH  057%=      5-min Rain = 0
KCA2 141451Z 29007KT 08/M00 A3026 RMK A01 T00801001  RH  057%=      5-min Rain = 0
KCA2 141452Z 29008KT 08/M00 A3026 RMK A01 T00811001  RH  056%=      5-min Rain = 0
KCA2 141453Z 30007KT 08/M00 A3026 RMK A01 T00811001  RH  056%=      5-min Rain = 0
KCA2 141454Z 30006KT 08/M00 A3026 RMK A01 T00811001  RH  056%=      5-min Rain = 0
KCA2 141455Z 30006KT 08/M00 A3027 RMK A01 T00821001  RH  056%=      5-min Rain = 0
KCA2 141456Z 29006KT 08/M00 A3027 RMK A01 T00821001  RH  056%=      5-min Rain = 0
KCA2 141457Z 29007KT 08/M00 A3027 RMK A01 T00831001  RH  056%=      5-min Rain = 0
KCA2 141458Z 29007KT 08/M00 A3027 RMK A01 T00831001  RH  056%=      5-min Rain = 0
KCA2 141459Z 28006KT 08/00 A3027 RMK A01 T008300-0  RH  056%=      5-min Rain = 0
KCA2 141500Z 28007KT 08/00 A3027 RMK A01 T00840000  RH  056%=      5-min Rain = 0
KCA2 141501Z 28007KT 08/00 A3027 RMK A01 T008400-0  RH  055%=      5-min Rain = 0
KCA2 141502Z 28007KT 08/00 A3027 RMK A01 T008400-0  RH  055%=      5-min Rain = 0
KCA2 141503Z 28005KT 08/00 A3027 RMK A01 T00840000  RH  055%=      5-min Rain = 0
KCA2 141504Z 30005KT 09/00 A3027 RMK A01 T00860002  RH  055%=      5-min Rain = 0
KCA2 141505Z 30005KT 09/00 A3027 RMK A01 T00880001  RH  055%=      5-min Rain = 0
KCA2 141506Z 29008KT 09/00 A3027 RMK A01 T00890001  RH  054%=      5-min Rain = 0
KCA2 141507Z 28006KT 09/00 A3027 RMK A01 T008800-0  RH  054%=      5-min Rain = 0
KCA2 141508Z 28008KT 09/M00 A3027 RMK A01 T00871001  RH  054%=      5-min Rain = 0
KCA2 141509Z 28007KT 09/M00 A3027 RMK A01 T00861001  RH  054%=      5-min Rain = 0
KCA2 141510Z 28007KT 09/00 A3027 RMK A01 T008500-0  RH  055%=      5-min Rain = 0
KCA2 141511Z 29007KT 09/00 A3027 RMK A01 T00850000  RH  055%=      5-min Rain = 0
KCA2 141512Z 29007KT 09/00 A3027 RMK A01 T00860001  RH  055%=      5-min Rain = 0
KCA2 141513Z 29006KT 09/00 A3027 RMK A01 T00870002  RH  055%=      5-min Rain = 0
KCA2 141514Z 28006KT 09/00 A3027 RMK A01 T00880002  RH  055%=      5-min Rain = 0
KCA2 141515Z 28008KT 09/00 A3027 RMK A01 T00900003  RH  054%=      5-min Rain = 0
KCA2 141516Z 28007KT 09/00 A3027 RMK A01 T00890002  RH  054%=      5-min Rain = 0
KCA2 141517Z 28006KT 09/00 A3027 RMK A01 T00900002  RH  054%=      5-min Rain = 0
KCA2 141518Z 28007KT 09/00 A3027 RMK A01 T00890002  RH  054%=      5-min Rain = 0
KCA2 141519Z 28008KT 09/00 A3027 RMK A01 T00890002  RH  054%=      5-min Rain = 0
KCA2 141520Z 28007KT 09/00 A3027 RMK A01 T00890001  RH  054%=      5-min Rain = 0
KCA2 141521Z 27007KT 09/00 A3027 RMK A01 T00900002  RH  054%=      5-min Rain = 0
KCA2 141522Z 27006KT 09/00 A3027 RMK A01 T00900002  RH  054%=      5-min Rain = 0
KCA2 141523Z 27006KT 09/00 A3027 RMK A01 T00910002  RH  054%=      5-min Rain = 0
KCA2 141524Z 28008KT 09/00 A3027 RMK A01 T00920002  RH  053%=      5-min Rain = 0
KCA2 141525Z 28007KT 09/M00 A3027 RMK A01 T00931001  RH  052%=      5-min Rain = 0
KCA2 141526Z 27006KT 09/00 A3027 RMK A01 T00930000  RH  052%=      5-min Rain = 0
KCA2 141527Z 27007KT 09/00 A3027 RMK A01 T009200-0  RH  053%=      5-min Rain = 0
KCA2 141528Z 27006KT 09/M00 A3027 RMK A01 T00921001  RH  052%=      5-min Rain = 0
KCA2 141529Z 28006KT 09/M00 A3027 RMK A01 T00921001  RH  052%=      5-min Rain = 0
KCA2 141530Z 28006KT 09/00 A3027 RMK A01 T00940000  RH  052%=      5-min Rain = 0
KCA2 141531Z 28008KT 10/M00 A3027 RMK A01 T00951001  RH  051%=      5-min Rain = 0
KCA2 141532Z 28008KT 09/M00 A3027 RMK A01 T00941001  RH  051%=      5-min Rain = 0
KCA2 141533Z 28007KT 09/00 A3027 RMK A01 T009300-0  RH  052%=      5-min Rain = 0
KCA2 141534Z 29005KT 09/00 A3027 RMK A01 T009400-0  RH  052%=      5-min Rain = 0
KCA2 141535Z 27005KT 10/00 A3027 RMK A01 T00950001  RH  052%=      5-min Rain = 0
KCA2 141536Z 27006KT 10/00 A3027 RMK A01 T00980003  RH  052%=      5-min Rain = 0
KCA2 141537Z 29008KT 10/00 A3027 RMK A01 T00980001  RH  051%=      5-min Rain = 0
KCA2 141538Z 29007KT 10/00 A3027 RMK A01 T009800-0  RH  050%=      5-min Rain = 0
KCA2 141539Z 30007KT 10/M00 A3027 RMK A01 T00981001  RH  050%=      5-min Rain = 0
KCA2 141540Z 29007KT 10/00 A3027 RMK A01 T009800-0  RH  050%=      5-min Rain = 0
KCA2 141541Z 29005KT 10/M00 A3027 RMK A01 T00991001  RH  050%=      5-min Rain = 0
KCA2 141542Z 29005KT 10/M00 A3027 RMK A01 T00991001  RH  050%=      5-min Rain = 0
KCA2 141543Z 30006KT 10/00 A3027 RMK A01 T009900-0  RH  050%=      5-min Rain = 0
KCA2 141544Z 30006KT 10/M00 A3027 RMK A01 T01001001  RH  050%=      5-min Rain = 0
KCA2 141545Z 30006KT 10/M00 A3027 RMK A01 T00991002  RH  050%=      5-min Rain = 0
KCA2 141546Z 30006KT 10/M00 A3027 RMK A01 T00991002  RH  050%=      5-min Rain = 0
KCA2 141547Z 30005KT 10/M00 A3027 RMK A01 T00991001  RH  050%=      5-min Rain = 0
KCA2 141548Z 31005KT 10/M00 A3028 RMK A01 T00991001  RH  050%=      5-min Rain = 0
KCA2 141549Z 30007KT 10/M00 A3028 RMK A01 T00991002  RH  049%=      5-min Rain = 0
KCA2 141550Z 31005KT 10/M00 A3028 RMK A01 T01001001  RH  050%=      5-min Rain = 0
KCA2 141551Z 29005KT 10/00 A3028 RMK A01 T00990000  RH  050%=      5-min Rain = 0
KCA2 141552Z 30006KT 10/M00 A3028 RMK A01 T01001001  RH  049%=      5-min Rain = 0
KCA2 141553Z 29005KT 10/M00 A3028 RMK A01 T00991002  RH  049%=      5-min Rain = 0
KCA2 141554Z 29005KT 10/M00 A3028 RMK A01 T01001001  RH  049%=      5-min Rain = 0
KCA2 141555Z 29004KT 10/M00 A3028 RMK A01 T01011002  RH  049%=      5-min Rain = 0
KCA2 141556Z 28005KT 10/M00 A3028 RMK A01 T01011001  RH  049%=      5-min Rain = 0
KCA2 141557Z 31005KT 10/M00 A3028 RMK A01 T01021001  RH  049%=      5-min Rain = 0
KCA2 141558Z 31005KT 10/00 A3028 RMK A01 T010300-0  RH  048%=      5-min Rain = 0
KCA2 141559Z 28006KT 10/M00 A3028 RMK A01 T01041001  RH  048%=      5-min Rain = 0
KCA2 141600Z 27006KT 11/00 A3028 RMK A01 T01050001  RH  048%=      5-min Rain = 0
KCA2 141601Z 27006KT 11/00 A3028 RMK A01 T01060000  RH  048%=      5-min Rain = 0
KCA2 141602Z 27006KT 11/00 A3028 RMK A01 T010600-0  RH  048%=      5-min Rain = 0
KCA2 141603Z 30006KT 11/00 A3028 RMK A01 T010600-0  RH  048%=      5-min Rain = 0
KCA2 141604Z 30006KT 11/M00 A3028 RMK A01 T01061001  RH  047%=      5-min Rain = 0
KCA2 141605Z 31004KT 11/M00 A3028 RMK A01 T01061002  RH  047%=      5-min Rain = 0
KCA2 141606Z 31002KT 11/M00 A3028 RMK A01 T01051003  RH  047%=      5-min Rain = 0
KCA2 141607Z 31003KT 11/M00 A3027 RMK A01 T01061002  RH  047%=      5-min Rain = 0
KCA2 141608Z 31006KT 11/M00 A3027 RMK A01 T01071002  RH  047%=      5-min Rain = 0
KCA2 141609Z 29005KT 11/00 A3027 RMK A01 T01080001  RH  047%=      5-min Rain = 0
KCA2 141610Z 29005KT 11/00 A3027 RMK A01 T01090000  RH  047%=      5-min Rain = 0
KCA2 141611Z 29005KT 11/M00 A3027 RMK A01 T01081001  RH  047%=      5-min Rain = 0
KCA2 141612Z 30004KT 11/M00 A3027 RMK A01 T01071002  RH  047%=      5-min Rain = 0
KCA2 141613Z 29003KT 11/M00 A3027 RMK A01 T01051002  RH  047%=      5-min Rain = 0
KCA2 141614Z 31004KT 11/M00 A3027 RMK A01 T01061001  RH  048%=      5-min Rain = 0
KCA2 141615Z 31003KT 11/M00 A3027 RMK A01 T01061002  RH  047%=      5-min Rain = 0
KCA2 141616Z 27004KT 11/00 A3027 RMK A01 T010700-0  RH  047%=      5-min Rain = 0
KCA2 141617Z 27004KT 11/M00 A3027 RMK A01 T01081001  RH  047%=      5-min Rain = 0
KCA2 141618Z 28004KT 11/M00 A3027 RMK A01 T01081001  RH  047%=      5-min Rain = 0
KCA2 141619Z 30002KT 11/M00 A3027 RMK A01 T01091001  RH  047%=      5-min Rain = 0
KCA2 141620Z 32002KT 11/M00 A3027 RMK A01 T01091001  RH  046%=      5-min Rain = 0
KCA2 141621Z 34001KT 11/M00 A3027 RMK A01 T01091003  RH  046%=      5-min Rain = 0
KCA2 141622Z 29001KT 11/M00 A3027 RMK A01 T01091002  RH  046%=      5-min Rain = 0
KCA2 141623Z 29005KT 11/00 A3027 RMK A01 T011000-0  RH  047%=      5-min Rain = 0
KCA2 141624Z 29004KT 11/00 A3027 RMK A01 T011100-0  RH  046%=      5-min Rain = 0
KCA2 141625Z 30003KT 11/M00 A3027 RMK A01 T01111001  RH  046%=      5-min Rain = 0
KCA2 141626Z 26005KT 11/M00 A3027 RMK A01 T01131001  RH  045%=      5-min Rain = 0
KCA2 141627Z 27003KT 11/M01 A3027 RMK A01 T01131005  RH  044%=      5-min Rain = 0
KCA2 141628Z 27004KT 11/M01 A3027 RMK A01 T01121006  RH  044%=      5-min Rain = 0
KCA2 141629Z 25004KT 11/M00 A3027 RMK A01 T01121004  RH  045%=      5-min Rain = 0
KCA2 141630Z 25004KT 11/M00 A3027 RMK A01 T01121003  RH  045%=      5-min Rain = 0
KCA2 141631Z 24002KT 11/M00 A3027 RMK A01 T01111003  RH  045%=      5-min Rain = 0
KCA2 141632Z 25004KT 11/M00 A3027 RMK A01 T01121003  RH  045%=      5-min Rain = 0
KCA2 141633Z 28004KT 11/M00 A3027 RMK A01 T01121003  RH  045%=      5-min Rain = 0
KCA2 141634Z 30003KT 11/M00 A3027 RMK A01 T01121002  RH  045%=      5-min Rain = 0
KCA2 141635Z 29002KT 11/M00 A3027 RMK A01 T01111002  RH  045%=      5-min Rain = 0
KCA2 141636Z 29002KT 11/M00 A3027 RMK A01 T01131001  RH  046%=      5-min Rain = 0
KCA2 141637Z 29001KT 12/00 A3027 RMK A01 T01170001  RH  045%=      5-min Rain = 0
KCA2 141638Z 30001KT 12/M00 A3027 RMK A01 T01191002  RH  043%=      5-min Rain = 0
KCA2 141639Z 29002KT 12/M00 A3027 RMK A01 T01191001  RH  044%=      5-min Rain = 0
KCA2 141640Z 26002KT 12/M00 A3027 RMK A01 T01201002  RH  043%=      5-min Rain = 0
KCA2 141641Z 22003KT 12/M00 A3027 RMK A01 T01191002  RH  043%=      5-min Rain = 0
KCA2 141642Z 23003KT 12/M00 A3027 RMK A01 T01181002  RH  043%=      5-min Rain = 0
KCA2 141643Z 21003KT 12/M00 A3027 RMK A01 T01171002  RH  044%=      5-min Rain = 0
KCA2 141644Z 23004KT 12/00 A3027 RMK A01 T011800-0  RH  044%=      5-min Rain = 0
KCA2 141645Z 24003KT 12/00 A3027 RMK A01 T01210000  RH  043%=      5-min Rain = 0
KCA2 141646Z 27005KT 12/M00 A3027 RMK A01 T01221001  RH  043%=      5-min Rain = 0
KCA2 141647Z 29005KT 12/M00 A3027 RMK A01 T01221001  RH  043%=      5-min Rain = 0
KCA2 141648Z 28004KT 12/M00 A3027 RMK A01 T01221001  RH  043%=      5-min Rain = 0
KCA2 141649Z 27004KT 12/M00 A3027 RMK A01 T01221001  RH  043%=      5-min Rain = 0
KCA2 141650Z 27004KT 12/M00 A3027 RMK A01 T01211003  RH  042%=      5-min Rain = 0
KCA2 141651Z 28003KT 12/M00 A3027 RMK A01 T01211002  RH  043%=      5-min Rain = 0
KCA2 141652Z 29003KT 12/M00 A3026 RMK A01 T01221002  RH  043%=      5-min Rain = 0
KCA2 141653Z 25003KT 12/M00 A3026 RMK A01 T01221003  RH  042%=      5-min Rain = 0
KCA2 141654Z 24003KT 12/M00 A3026 RMK A01 T01201003  RH  043%=      5-min Rain = 0
KCA2 141655Z 24003KT 12/M00 A3026 RMK A01 T01211001  RH  043%=      5-min Rain = 0
KCA2 141656Z 24002KT 12/M00 A3026 RMK A01 T01211002  RH  042%=      5-min Rain = 0
KCA2 141657Z 28000KT 12/M00 A3026 RMK A01 T01201002  RH  043%=      5-min Rain = 0
KCA2 141658Z 29000KT 12/M00 A3026 RMK A01 T01201003  RH  043%=      5-min Rain = 0
KCA2 141659Z 25001KT 12/M00 A3026 RMK A01 T01201003  RH  043%=      5-min Rain = 0
KCA2 141700Z 33000KT 12/M00 A3026 RMK A01 T01211003  RH  043%=      5-min Rain = 0
KCA2 141701Z 29001KT 12/M00 A3026 RMK A01 T01221002  RH  042%=      5-min Rain = 0
KCA2 141702Z 18002KT 13/M00 A3026 RMK A01 T01251001  RH  042%=      5-min Rain = 0
KCA2 141703Z 21002KT 13/M00 A3026 RMK A01 T01261002  RH  041%=      5-min Rain = 0
KCA2 141704Z 22002KT 13/M00 A3026 RMK A01 T01271002  RH  041%=      5-min Rain = 0
KCA2 141705Z 23003KT 13/M00 A3026 RMK A01 T01281002  RH  041%=      5-min Rain = 0
KCA2 141706Z 26003KT 13/M00 A3026 RMK A01 T01261002  RH  041%=      5-min Rain = 0
KCA2 141707Z 28002KT 13/M00 A3026 RMK A01 T01271002  RH  041%=      5-min Rain = 0
KCA2 141708Z 28003KT 13/M00 A3026 RMK A01 T01271002  RH  041%=      5-min Rain = 0
KCA2 141709Z 26003KT 13/M00 A3026 RMK A01 T01291001  RH  041%=      5-min Rain = 0
KCA2 141710Z 25004KT 13/M00 A3026 RMK A01 T01291002  RH  040%=      5-min Rain = 0
KCA2 141711Z 23002KT 13/M00 A3026 RMK A01 T01291002  RH  041%=      5-min Rain = 0
KCA2 141712Z 23003KT 13/M00 A3026 RMK A01 T01291002  RH  041%=      5-min Rain = 0
KCA2 141713Z 22002KT 13/M00 A3026 RMK A01 T01301001  RH  040%=      5-min Rain = 0
KCA2 141714Z 22000KT 13/M00 A3026 RMK A01 T01311002  RH  040%=      5-min Rain = 0
KCA2 141715Z 12001KT 13/M00 A3026 RMK A01 T01311001  RH  040%=      5-min Rain = 0
KCA2 141716Z 05002KT 13/M00 A3026 RMK A01 T01331001  RH  040%=      5-min Rain = 0
KCA2 141717Z 09001KT 14/M00 A3026 RMK A01 T01351002  RH  039%=      5-min Rain = 0
KCA2 141718Z 19002KT 14/M00 A3026 RMK A01 T01361003  RH  038%=      5-min Rain = 0
KCA2 141719Z 17003KT 14/M00 A3025 RMK A01 T01381003  RH  038%=      5-min Rain = 0
KCA2 141720Z 18003KT 14/M00 A3025 RMK A01 T01391003  RH  038%=      5-min Rain = 0
KCA2 141721Z 16003KT 14/M00 A3025 RMK A01 T01381003  RH  038%=      5-min Rain = 0
KCA2 141722Z 18002KT 14/M00 A3025 RMK A01 T01371003  RH  038%=      5-min Rain = 0
KCA2 141723Z 14002KT 14/M00 A3025 RMK A01 T01361003  RH  038%=      5-min Rain = 0
KCA2 141724Z 13004KT 14/M00 A3025 RMK A01 T01361003  RH  038%=      5-min Rain = 0
KCA2 141725Z 12003KT 14/M00 A3025 RMK A01 T01381002  RH  038%=      5-min Rain = 0
KCA2 141726Z 12003KT 14/M00 A3025 RMK A01 T01401003  RH  037%=      5-min Rain = 0
KCA2 141727Z 16003KT 14/M00 A3025 RMK A01 T01381004  RH  038%=      5-min Rain = 0
KCA2 141728Z 15002KT 14/M01 A3025 RMK A01 T01371005  RH  038%=      5-min Rain = 0
KCA2 141729Z 14002KT 14/M00 A3025 RMK A01 T01361004  RH  038%=      5-min Rain = 0
KCA2 141730Z 18003KT 14/M00 A3025 RMK A01 T01371003  RH  038%=      5-min Rain = 0
KCA2 141731Z 19002KT 14/M00 A3025 RMK A01 T01381004  RH  038%=      5-min Rain = 0
KCA2 141732Z 19002KT 14/M00 A3025 RMK A01 T01371004  RH  038%=      5-min Rain = 0
KCA2 141733Z 17003KT 14/M00 A3025 RMK A01 T01371004  RH  038%=      5-min Rain = 0
KCA2 141734Z 20002KT 14/M01 A3025 RMK A01 T01371005  RH  038%=      5-min Rain = 0
KCA2 141735Z 22001KT 14/M01 A3024 RMK A01 T01351005  RH  038%=      5-min Rain = 0
KCA2 141736Z 14001KT 13/M01 A3024 RMK A01 T01331006  RH  038%=      5-min Rain = 0
KCA2 141737Z 16002KT 13/M01 A3024 RMK A01 T01331005  RH  039%=      5-min Rain = 0
KCA2 141738Z 12002KT 14/M00 A3024 RMK A01 T01371003  RH  038%=      5-min Rain = 0
KCA2 141739Z 24002KT 14/M00 A3024 RMK A01 T01391003  RH  037%=      5-min Rain = 0
KCA2 141740Z 17002KT 14/M00 A3024 RMK A01 T01411003  RH  037%=      5-min Rain = 0
KCA2 141741Z 10003KT 14/M00 A3024 RMK A01 T01421004  RH  037%=      5-min Rain = 0
KCA2 141742Z 09004KT 14/M00 A3024 RMK A01 T01401004  RH  037%=      5-min Rain = 0
KCA2 141743Z 07003KT 14/M00 A3024 RMK A01 T01401004  RH  037%=      5-min Rain = 0
KCA2 141744Z 03002KT 14/M01 A3024 RMK A01 T01371006  RH  037%=      5-min Rain = 0
KCA2 141745Z 00001KT 14/M01 A3024 RMK A01 T01351006  RH  038%=      5-min Rain = 0
KCA2 141746Z 07001KT 14/M00 A3024 RMK A01 T01361003  RH  038%=      5-min Rain = 0
KCA2 141747Z 08002KT 14/M00 A3024 RMK A01 T01401002  RH  038%=      5-min Rain = 0
KCA2 141748Z 03002KT 14/M00 A3024 RMK A01 T01431003  RH  037%=      5-min Rain = 0
KCA2 141749Z 01001KT 14/M00 A3024 RMK A01 T01421004  RH  037%=      5-min Rain = 0
KCA2 141750Z 02001KT 14/M00 A3024 RMK A01 T01421004  RH  037%=      5-min Rain = 0
KCA2 141751Z 07003KT 14/M00 A3024 RMK A01 T01431004  RH  037%=      5-min Rain = 0
KCA2 141752Z 06001KT 14/M01 A3024 RMK A01 T01411005  RH  037%=      5-min Rain = 0
KCA2 141753Z 05002KT 14/M01 A3024 RMK A01 T01401005  RH  037%=      5-min Rain = 0
KCA2 141754Z 02002KT 14/M00 A3024 RMK A01 T01391004  RH  037%=      5-min Rain = 0
KCA2 141755Z 01002KT 14/M00 A3024 RMK A01 T01401003  RH  037%=      5-min Rain = 0
KCA2 141756Z 35003KT 14/M01 A3024 RMK A01 T01401005  RH  037%=      5-min Rain = 0
KCA2 141757Z 32002KT 14/M01 A3024 RMK A01 T01391006  RH  037%=      5-min Rain = 0
KCA2 141758Z 26001KT 14/M01 A3024 RMK A01 T01381006  RH  037%=      5-min Rain = 0
KCA2 141759Z 35000KT 14/M01 A3024 RMK A01 T01381006  RH  037%=      5-min Rain = 0
KCA2 141800Z 01001KT 14/M01 A3024 RMK A01 T01391005  RH  037%=      5-min Rain = 0
KCA2 141801Z 02000KT 14/M01 A3024 RMK A01 T01401005  RH  037%=      5-min Rain = 0
KCA2 141802Z 24001KT 14/M01 A3024 RMK A01 T01401005  RH  037%=      5-min Rain = 0
KCA2 141803Z 24003KT 14/M00 A3024 RMK A01 T01421003  RH  037%=      5-min Rain = 0
KCA2 141804Z 23003KT 14/M00 A3023 RMK A01 T01431004  RH  036%=      5-min Rain = 0
KCA2 141805Z 25002KT 14/M00 A3023 RMK A01 T01431004  RH  037%=      5-min Rain = 0
KCA2 141806Z 27002KT 14/M00 A3023 RMK A01 T01421004  RH  037%=      5-min Rain = 0
KCA2 141807Z 32001KT 14/M00 A3023 RMK A01 T01421004  RH  037%=      5-min Rain = 0
KCA2 141808Z 30002KT 14/M00 A3023 RMK A01 T01421003  RH  037%=      5-min Rain = 0
KCA2 141809Z 31002KT 15/M00 A3023 RMK A01 T01451003  RH  036%=      5-min Rain = 0
KCA2 141810Z 33001KT 15/M00 A3023 RMK A01 T01461004  RH  036%=      5-min Rain = 0
KCA2 141811Z 30001KT 15/M00 A3023 RMK A01 T01461003  RH  036%=      5-min Rain = 0
KCA2 141812Z 08000KT 15/M00 A3023 RMK A01 T01471003  RH  036%=      5-min Rain = 0
KCA2 141813Z 21002KT 15/M00 A3023 RMK A01 T01481003  RH  036%=      5-min Rain = 0
KCA2 141814Z 23003KT 15/M00 A3023 RMK A01 T01501002  RH  035%=      5-min Rain = 0
KCA2 141815Z 22004KT 15/M00 A3022 RMK A01 T01531002  RH  035%=      5-min Rain = 0
KCA2 141816Z 23001KT 15/M00 A3022 RMK A01 T01511004  RH  035%=      5-min Rain = 0
KCA2 141817Z 34000KT 15/M01 A3022 RMK A01 T01481006  RH  035%=      5-min Rain = 0
KCA2 141818Z 02001KT 15/M01 A3022 RMK A01 T01461005  RH  035%=      5-min Rain = 0
KCA2 141819Z 34001KT 15/M00 A3022 RMK A01 T01481003  RH  036%=      5-min Rain = 0
KCA2 141820Z 28002KT 15/M00 A3022 RMK A01 T01501003  RH  035%=      5-min Rain = 0
KCA2 141821Z 26002KT 15/M00 A3022 RMK A01 T01511004  RH  035%=      5-min Rain = 0
KCA2 141822Z 20002G7KT 15/M00 A3022 RMK A01 T01521003  RH  035%=      5-min Rain = 0
KCA2 141823Z 19005KT 16/M00 A3022 RMK A01 T01551002  RH  034%=      5-min Rain = 0
KCA2 141824Z 16006KT 16/M00 A3022 RMK A01 T01581002  RH  034%=      5-min Rain = 0
KCA2 141825Z 13005KT 16/M00 A3022 RMK A01 T01591003  RH  033%=      5-min Rain = 0
KCA2 141826Z 15005KT 16/M00 A3022 RMK A01 T01601003  RH  033%=      5-min Rain = 0
KCA2 141827Z 13004KT 16/M00 A3022 RMK A01 T01601003  RH  033%=      5-min Rain = 0
KCA2 141828Z 12003KT 16/M00 A3022 RMK A01 T01591003  RH  033%=      5-min Rain = 0
KCA2 141829Z 10002KT 16/M00 A3022 RMK A01 T01591002  RH  033%=      5-min Rain = 0
KCA2 141830Z 12001KT 16/M00 A3022 RMK A01 T01601004  RH  033%=      5-min Rain = 0
KCA2 141831Z 16003KT 16/M00 A3022 RMK A01 T01601003  RH  033%=      5-min Rain = 0
KCA2 141832Z 18005KT 16/M00 A3021 RMK A01 T01631001  RH  033%=      5-min Rain = 0
KCA2 141833Z 14006KT 17/M00 A3021 RMK A01 T01661001  RH  032%=      5-min Rain = 0
KCA2 141834Z 12004KT 17/M00 A3021 RMK A01 T01651003  RH  032%=      5-min Rain = 0
KCA2 141835Z 14005KT 16/M00 A3021 RMK A01 T01621002  RH  033%=      5-min Rain = 0
KCA2 141836Z 16006KT 16/M00 A3021 RMK A01 T01641001  RH  033%=      5-min Rain = 0
KCA2 141837Z 16004KT 17/M00 A3021 RMK A01 T01661002  RH  032%=      5-min Rain = 0
KCA2 141838Z 13007KT 17/M00 A3021 RMK A01 T01651001  RH  032%=      5-min Rain = 0
KCA2 141839Z 13006KT 16/M00 A3021 RMK A01 T01631002  RH  032%=      5-min Rain = 0
KCA2 141840Z 12004KT 16/M00 A3021 RMK A01 T01611002  RH  033%=      5-min Rain = 0
KCA2 141841Z 14007KT 16/M00 A3021 RMK A01 T01611002  RH  033%=      5-min Rain = 0
KCA2 141842Z 14006KT 16/M00 A3021 RMK A01 T01631001  RH  033%=      5-min Rain = 0
KCA2 141843Z 15008KT 16/M00 A3021 RMK A01 T01621001  RH  033%=      5-min Rain = 0
KCA2 141844Z 12006KT 16/00 A3021 RMK A01 T016400-0  RH  033%=      5-min Rain = 0
KCA2 141845Z 10007KT 16/M00 A3021 RMK A01 T01631001  RH  033%=      5-min Rain = 0
KCA2 141846Z 10007KT 16/00 A3021 RMK A01 T016300-0  RH  033%=      5-min Rain = 0
KCA2 141847Z 10006KT 16/00 A3021 RMK A01 T016200-0  RH  033%=      5-min Rain = 0
KCA2 141848Z 10003KT 16/00 A302 RMK A01 T01620000  RH  033%=      5-min Rain = 0
KCA2 141849Z 10003KT 16/00 A302 RMK A01 T01640000  RH  033%=      5-min Rain = 0
KCA2 141850Z 12003KT 17/00 A302 RMK A01 T01650000  RH  033%=      5-min Rain = 0
KCA2 141851Z 11001KT 17/M00 A302 RMK A01 T01651001  RH  032%=      5-min Rain = 0
KCA2 141852Z 10002KT 16/M00 A302 RMK A01 T01631001  RH  033%=      5-min Rain = 0
KCA2 141853Z 08005KT 16/00 A302 RMK A01 T01630001  RH  033%=      5-min Rain = 0
KCA2 141854Z 10006KT 17/00 A302 RMK A01 T01660002  RH  033%=      5-min Rain = 0
KCA2 141855Z 12006KT 17/00 A302 RMK A01 T01670001  RH  032%=      5-min Rain = 0
KCA2 141856Z 13006KT 17/00 A302 RMK A01 T01670001  RH  032%=      5-min Rain = 0
KCA2 141857Z 13004KT 17/00 A3019 RMK A01 T01670000  RH  032%=      5-min Rain = 0
KCA2 141858Z 14005KT 17/00 A3019 RMK A01 T01660000  RH  032%=      5-min Rain = 0
KCA2 141859Z 13005KT 17/00 A3019 RMK A01 T01660001  RH  033%=      5-min Rain = 0
KCA2 141900Z 14007KT 17/00 A3019 RMK A01 T01670001  RH  032%=      5-min Rain = 0
KCA2 141901Z 15004KT 17/00 A3019 RMK A01 T01680001  RH  032%=      5-min Rain = 0
KCA2 141902Z 18004KT 17/00 A3019 RMK A01 T01690001  RH  032%=      5-min Rain = 0
KCA2 141903Z 16003KT 17/00 A3019 RMK A01 T01670001  RH  032%=      5-min Rain = 0
KCA2 141904Z 11003KT 17/00 A3019 RMK A01 T01680001  RH  032%=      5-min Rain = 0
KCA2 141905Z 12002KT 17/00 A3019 RMK A01 T01680000  RH  032%=      5-min Rain = 0
KCA2 141906Z 21003KT 17/00 A3019 RMK A01 T01670001  RH  032%=      5-min Rain = 0
KCA2 141907Z 19002KT 17/00 A3019 RMK A01 T01670001  RH  032%=      5-min Rain = 0
KCA2 141908Z 18005KT 17/00 A3019 RMK A01 T01670001  RH  032%=      5-min Rain = 0
KCA2 141909Z 18005KT 17/00 A3018 RMK A01 T01690002  RH  032%=      5-min Rain = 0
KCA2 141910Z 17001KT 17/00 A3018 RMK A01 T01700001  RH  032%=      5-min Rain = 0
KCA2 141911Z 19005KT 17/00 A3018 RMK A01 T01690001  RH  032%=      5-min Rain = 0
KCA2 141912Z 17007KT 17/00 A3018 RMK A01 T01690002  RH  032%=      5-min Rain = 0
KCA2 141913Z 14007KT 17/00 A3018 RMK A01 T01710002  RH  032%=      5-min Rain = 0
KCA2 141914Z 10007KT 17/00 A3018 RMK A01 T01720002  RH  032%=      5-min Rain = 0
KCA2 141915Z 10007KT 17/00 A3018 RMK A01 T01740001  RH  031%=      5-min Rain = 0
KCA2 141916Z 08005KT 17/00 A3018 RMK A01 T01730001  RH  031%=      5-min Rain = 0
KCA2 141917Z 09005KT 17/00 A3018 RMK A01 T01720001  RH  031%=      5-min Rain = 0
KCA2 141918Z 14004KT 17/00 A3018 RMK A01 T01740002  RH  031%=      5-min Rain = 0
KCA2 141919Z 18006KT 18/00 A3018 RMK A01 T01760002  RH  031%=      5-min Rain = 0
KCA2 141920Z 19003KT 18/00 A3018 RMK A01 T01770001  RH  030%=      5-min Rain = 0
KCA2 141921Z 18001KT 18/00 A3018 RMK A01 T01770001  RH  031%=      5-min Rain = 0
KCA2 141922Z 18002KT 18/00 A3017 RMK A01 T01760001  RH  031%=      5-min Rain = 0
KCA2 141923Z 19003KT 18/00 A3017 RMK A01 T01750001  RH  031%=      5-min Rain = 0
KCA2 141924Z 18003KT 18/00 A3017 RMK A01 T01780002  RH  031%=      5-min Rain = 0
KCA2 141925Z 15003KT 18/00 A3017 RMK A01 T01800002  RH  030%=      5-min Rain = 0
KCA2 141926Z 17005KT 18/00 A3017 RMK A01 T01810002  RH  030%=      5-min Rain = 0
KCA2 141927Z 18005KT 18/00 A3017 RMK A01 T01830002  RH  030%=      5-min Rain = 0
KCA2 141928Z 16003KT 18/00 A3017 RMK A01 T01820001  RH  029%=      5-min Rain = 0
KCA2 141929Z 14006KT 18/00 A3017 RMK A01 T01800002  RH  030%=      5-min Rain = 0
KCA2 141930Z 19003KT 18/00 A3017 RMK A01 T01790000  RH  030%=      5-min Rain = 0
KCA2 141931Z 16006KT 18/00 A3017 RMK A01 T01780000  RH  030%=      5-min Rain = 0
KCA2 141932Z 16006KT 18/00 A3016 RMK A01 T017800-0  RH  030%=      5-min Rain = 0
KCA2 141933Z 14005KT 18/00 A3016 RMK A01 T01790001  RH  030%=      5-min Rain = 0
KCA2 141934Z 13010KT 18/00 A3016 RMK A01 T01820001  RH  030%=      5-min Rain = 0
KCA2 141935Z 12010KT 18/00 A3016 RMK A01 T018100-0  RH  029%=      5-min Rain = 0
KCA2 141936Z 10008KT 18/00 A3016 RMK A01 T018000-0  RH  030%=      5-min Rain = 0
KCA2 141937Z 14011KT 18/00 A3016 RMK A01 T01790000  RH  030%=      5-min Rain = 0
KCA2 141938Z 14008KT 18/00 A3016 RMK A01 T018000-0  RH  030%=      5-min Rain = 0
KCA2 141939Z 11005KT 18/M00 A3016 RMK A01 T01791001  RH  030%=      5-min Rain = 0
KCA2 141940Z 07003KT 18/M00 A3016 RMK A01 T01771001  RH  030%=      5-min Rain = 0
KCA2 141941Z 10003KT 18/M00 A3016 RMK A01 T01751001  RH  030%=      5-min Rain = 0
KCA2 141942Z 14006KT 18/00 A3016 RMK A01 T01760000  RH  030%=      5-min Rain = 0
KCA2 141943Z 15009KT 18/00 A3015 RMK A01 T01790002  RH  030%=      5-min Rain = 0
KCA2 141944Z 15005KT 18/00 A3015 RMK A01 T01820001  RH  029%=      5-min Rain = 0
KCA2 141945Z 13006KT 18/00 A3015 RMK A01 T01790000  RH  030%=      5-min Rain = 0
KCA2 141946Z 14010KT 18/00 A3015 RMK A01 T01790002  RH  030%=      5-min Rain = 0
KCA2 141947Z 13008KT 18/00 A3015 RMK A01 T01800001  RH  030%=      5-min Rain = 0
KCA2 141948Z 12008KT 18/00 A3015 RMK A01 T01790001  RH  030%=      5-min Rain = 0
KCA2 141949Z 16008KT 18/00 A3015 RMK A01 T01800001  RH  030%=      5-min Rain = 0
KCA2 141950Z 16007KT 18/00 A3015 RMK A01 T01800001  RH  030%=      5-min Rain = 0
KCA2 141951Z 15005KT 18/00 A3015 RMK A01 T01800000  RH  030%=      5-min Rain = 0
KCA2 141952Z 14003KT 18/00 A3014 RMK A01 T017800-0  RH  030%=      5-min Rain = 0
KCA2 141953Z 18005KT 18/00 A3014 RMK A01 T01780001  RH  030%=      5-min Rain = 0
KCA2 141954Z 16008KT 18/00 A3014 RMK A01 T01820002  RH  030%=      5-min Rain = 0
KCA2 141955Z 14009KT 19/00 A3014 RMK A01 T01850003  RH  029%=      5-min Rain = 0
KCA2 141956Z 13007KT 19/00 A3014 RMK A01 T01860002  RH  029%=      5-min Rain = 0
KCA2 141957Z 14007KT 18/00 A3014 RMK A01 T01840001  RH  029%=      5-min Rain = 0
KCA2 141958Z 14007KT 18/00 A3014 RMK A01 T01840002  RH  029%=      5-min Rain = 0
KCA2 141959Z 17005KT 18/00 A3014 RMK A01 T01830001  RH  029%=      5-min Rain = 0
KCA2 142000Z 18007KT 19/00 A3014 RMK A01 T01850002  RH  029%=      5-min Rain = 0
KCA2 142001Z 16007KT 19/00 A3014 RMK A01 T01850001  RH  029%=      5-min Rain = 0
KCA2 142002Z 13004KT 19/00 A3014 RMK A01 T01860003  RH  029%=      5-min Rain = 0
KCA2 142003Z 14005G10KT 19/00 A3014 RMK A01 T01900004  RH  029%=      5-min Rain = 0
KCA2 142004Z 16008KT 19/00 A3013 RMK A01 T01920002  RH  028%=      5-min Rain = 0
KCA2 142005Z 15007KT 19/00 A3013 RMK A01 T01920002  RH  028%=      5-min Rain = 0
KCA2 142006Z 14005KT 19/00 A3013 RMK A01 T01910001  RH  028%=      5-min Rain = 0
KCA2 142007Z 12003KT 19/00 A3013 RMK A01 T01890000  RH  028%=      5-min Rain = 0
KCA2 142008Z 14002KT 19/00 A3013 RMK A01 T018600-0  RH  029%=      5-min Rain = 0
KCA2 142009Z 09002KT 18/00 A3013 RMK A01 T018400-0  RH  029%=      5-min Rain = 0
KCA2 142010Z 08003KT 19/00 A3013 RMK A01 T01850001  RH  029%=      5-min Rain = 0
KCA2 142011Z 14002KT 19/00 A3013 RMK A01 T01850000  RH  029%=      5-min Rain = 0
KCA2 142012Z 19004KT 18/00 A3013 RMK A01 T01840000  RH  029%=      5-min Rain = 0
KCA2 142013Z 20004KT 18/00 A3013 RMK A01 T01830001  RH  029%=      5-min Rain = 0
KCA2 142014Z 18006KT 18/00 A3013 RMK A01 T01830001  RH  029%=      5-min Rain = 0
KCA2 142015Z 19005KT 19/00 A3013 RMK A01 T01850002  RH  029%=      5-min Rain = 0
KCA2 142016Z 12004KT 19/00 A3012 RMK A01 T01870003  RH  029%=      5-min Rain = 0
KCA2 142017Z 11006KT 19/00 A3012 RMK A01 T01900003  RH  028%=      5-min Rain = 0
KCA2 142018Z 13007KT 19/00 A3012 RMK A01 T01910002  RH  028%=      5-min Rain = 0
KCA2 142019Z 15005KT 19/00 A3012 RMK A01 T01900001  RH  028%=      5-min Rain = 0
KCA2 142020Z 17005KT 19/00 A3012 RMK A01 T01910001  RH  028%=      5-min Rain = 0
KCA2 142021Z 17005KT 19/00 A3012 RMK A01 T01900002  RH  028%=      5-min Rain = 0
KCA2 142022Z 21003KT 19/00 A3012 RMK A01 T01900002  RH  028%=      5-min Rain = 0
KCA2 142023Z 18002KT 19/00 A3012 RMK A01 T01910003  RH  028%=      5-min Rain = 0
KCA2 142024Z 18004KT 19/00 A3012 RMK A01 T01930002  RH  028%=      5-min Rain = 0
KCA2 142025Z 18004KT 19/00 A3012 RMK A01 T01940003  RH  028%=      5-min Rain = 0
KCA2 142026Z 16006KT 19/00 A3012 RMK A01 T01930002  RH  028%=      5-min Rain = 0
KCA2 142027Z 11006KT 19/00 A3011 RMK A01 T01930002  RH  028%=      5-min Rain = 0
KCA2 142028Z 11006KT 19/00 A3011 RMK A01 T01920001  RH  028%=      5-min Rain = 0
KCA2 142029Z 13006KT 19/00 A3011 RMK A01 T01910002  RH  028%=      5-min Rain = 0
KCA2 142030Z 11002KT 19/00 A3011 RMK A01 T01900001  RH  028%=      5-min Rain = 0
KCA2 142031Z 13004KT 19/00 A3011 RMK A01 T01880000  RH  028%=      5-min Rain = 0
KCA2 142032Z 14004KT 19/00 A3011 RMK A01 T01870001  RH  029%=      5-min Rain = 0
KCA2 142033Z 16005KT 19/00 A3011 RMK A01 T01880002  RH  029%=      5-min Rain = 0
KCA2 142034Z 13008KT 19/00 A3011 RMK A01 T01920003  RH  028%=      5-min Rain = 0
KCA2 142035Z 12007KT 19/00 A3011 RMK A01 T01930001  RH  028%=      5-min Rain = 0
KCA2 142036Z 11004KT 19/00 A3011 RMK A01 T01910001  RH  028%=      5-min Rain = 0
KCA2 142037Z 09004KT 19/00 A3011 RMK A01 T01890000  RH  028%=      5-min Rain = 0
KCA2 142038Z 08003KT 19/00 A3011 RMK A01 T01870000  RH  028%=      5-min Rain = 0
KCA2 142039Z 14003KT 19/00 A3011 RMK A01 T01850001  RH  029%=      5-min Rain = 0
KCA2 142040Z 13002KT 19/00 A3011 RMK A01 T01850001  RH  029%=      5-min Rain = 0
KCA2 142041Z 10004KT 19/00 A3011 RMK A01 T01870002  RH  029%=      5-min Rain = 0
KCA2 142042Z 10003KT 19/00 A301 RMK A01 T01900004  RH  029%=      5-min Rain = 0
KCA2 142043Z 13007KT 19/00 A301 RMK A01 T01940004  RH  028%=      5-min Rain = 0
KCA2 142044Z 11007KT 19/00 A301 RMK A01 T01930002  RH  028%=      5-min Rain = 0
KCA2 142045Z 13004KT 19/00 A301 RMK A01 T01910003  RH  028%=      5-min Rain = 0
KCA2 142046Z 15006KT 19/00 A301 RMK A01 T01910003  RH  028%=      5-min Rain = 0
KCA2 142047Z 17007KT 19/00 A301 RMK A01 T01920002  RH  028%=      5-min Rain = 0
KCA2 142048Z 17005KT 19/00 A301 RMK A01 T01920002  RH  028%=      5-min Rain = 0
KCA2 142049Z 17004KT 19/00 A301 RMK A01 T01920002  RH  028%=      5-min Rain = 0
KCA2 142050Z 18002KT 19/00 A301 RMK A01 T01920002  RH  028%=      5-min Rain = 0
KCA2 142051Z 29002KT 19/00 A301 RMK A01 T01920003  RH  028%=      5-min Rain = 0
KCA2 142052Z 16005KT 19/00 A301 RMK A01 T01940003  RH  028%=      5-min Rain = 0
KCA2 142053Z 16007KT 20/00 A301 RMK A01 T01950003  RH  028%=      5-min Rain = 0
KCA2 142054Z 16007KT 20/00 A301 RMK A01 T01960004  RH  028%=      5-min Rain = 0
KCA2 142055Z 15006KT 20/00 A301 RMK A01 T01970003  RH  027%=      5-min Rain = 0
KCA2 142056Z 15005KT 20/00 A301 RMK A01 T01970003  RH  027%=      5-min Rain = 0
KCA2 142057Z 16005KT 20/00 A301 RMK A01 T01980004  RH  027%=      5-min Rain = 0
KCA2 142058Z 18006KT 20/00 A301 RMK A01 T02010004  RH  027%=      5-min Rain = 0
KCA2 142059Z 19007KT 20/00 A3009 RMK A01 T02020004  RH  027%=      5-min Rain = 0
KCA2 142100Z 20007KT 20/00 A3009 RMK A01 T02020004  RH  026%=      5-min Rain = 0
KCA2 142101Z 18009KT 20/00 A3009 RMK A01 T02020004  RH  027%=      5-min Rain = 0
KCA2 142102Z 18007KT 20/00 A3009 RMK A01 T02020003  RH  026%=      5-min Rain = 0
KCA2 142103Z 21008KT 20/00 A3009 RMK A01 T02020004  RH  027%=      5-min Rain = 0
KCA2 142104Z 21005KT 20/00 A3009 RMK A01 T02010004  RH  027%=      5-min Rain = 0
KCA2 142105Z 21007KT 20/00 A3009 RMK A01 T02020004  RH  027%=      5-min Rain = 0
KCA2 142106Z 21005KT 20/00 A3009 RMK A01 T02020004  RH  027%=      5-min Rain = 0
KCA2 142107Z 21006KT 20/00 A3009 RMK A01 T02000003  RH  027%=      5-min Rain = 0
KCA2 142108Z 21008KT 20/00 A3009 RMK A01 T01990003  RH  027%=      5-min Rain = 0
KCA2 142109Z 17007KT 20/00 A3009 RMK A01 T01970003  RH  027%=      5-min Rain = 0
KCA2 142110Z 17004KT 20/01 A3009 RMK A01 T01980005  RH  027%=      5-min Rain = 0
KCA2 142111Z 16002KT 20/01 A3009 RMK A01 T02010005  RH  027%=      5-min Rain = 0
KCA2 142112Z 11003KT 20/00 A3009 RMK A01 T02030004  RH  027%=      5-min Rain = 0
KCA2 142113Z 10004KT 20/00 A3008 RMK A01 T02030003  RH  026%=      5-min Rain = 0
KCA2 142114Z 09003KT 20/00 A3008 RMK A01 T01990002  RH  027%=      5-min Rain = 0
KCA2 142115Z 11004KT 20/00 A3008 RMK A01 T01960002  RH  027%=      5-min Rain = 0
KCA2 142116Z 14005KT 20/00 A3008 RMK A01 T01950003  RH  028%=      5-min Rain = 0
KCA2 142117Z 11006KT 20/00 A3008 RMK A01 T01980004  RH  027%=      5-min Rain = 0
KCA2 142118Z 09005KT 20/00 A3008 RMK A01 T02000004  RH  027%=      5-min Rain = 0
KCA2 142119Z 14005KT 20/00 A3008 RMK A01 T02010003  RH  027%=      5-min Rain = 0
KCA2 142120Z 17006KT 20/01 A3008 RMK A01 T02010005  RH  027%=      5-min Rain = 0
KCA2 142121Z 18009KT 21/01 A3008 RMK A01 T02050005  RH  026%=      5-min Rain = 0
KCA2 142122Z 17008KT 21/00 A3008 RMK A01 T02060004  RH  026%=      5-min Rain = 0
KCA2 142123Z 16006KT 21/00 A3008 RMK A01 T02050004  RH  026%=      5-min Rain = 0
KCA2 142124Z 17005KT 21/00 A3008 RMK A01 T02050004  RH  026%=      5-min Rain = 0
KCA2 142125Z 18003KT 20/00 A3008 RMK A01 T02040004  RH  026%=      5-min Rain = 0
KCA2 142126Z 19003KT 20/00 A3008 RMK A01 T02030004  RH  026%=      5-min Rain = 0
KCA2 142127Z 19004KT 20/00 A3007 RMK A01 T02020004  RH  026%=      5-min Rain = 0
KCA2 142128Z 26002KT 20/00 A3007 RMK A01 T02010003  RH  027%=      5-min Rain = 0
KCA2 142129Z 24002KT 20/00 A3007 RMK A01 T02000003  RH  027%=      5-min Rain = 0
KCA2 142130Z 17004KT 20/00 A3007 RMK A01 T02010004  RH  027%=      5-min Rain = 0
KCA2 142131Z 17005KT 20/00 A3007 RMK A01 T02040003  RH  026%=      5-min Rain = 0
KCA2 142132Z 17003KT 20/00 A3007 RMK A01 T02040003  RH  026%=      5-min Rain = 0
KCA2 142133Z 17007KT 20/00 A3007 RMK A01 T02030003  RH  026%=      5-min Rain = 0
KCA2 142134Z 16006KT 20/00 A3007 RMK A01 T02030003  RH  026%=      5-min Rain = 0
KCA2 142135Z 17007KT 20/00 A3007 RMK A01 T02030004  RH  026%=      5-min Rain = 0
KCA2 142136Z 17005KT 21/00 A3007 RMK A01 T02050003  RH  026%=      5-min Rain = 0
KCA2 142137Z 18007KT 21/00 A3006 RMK A01 T02070004  RH  026%=      5-min Rain = 0
KCA2 142138Z 18007KT 21/00 A3006 RMK A01 T02080004  RH  026%=      5-min Rain = 0
KCA2 142139Z 17008KT 21/00 A3006 RMK A01 T02090004  RH  026%=      5-min Rain = 0
KCA2 142140Z 17007KT 21/00 A3006 RMK A01 T02090003  RH  025%=      5-min Rain = 0
KCA2 142141Z 18008KT 21/00 A3006 RMK A01 T02080004  RH  026%=      5-min Rain = 0
KCA2 142142Z 17007KT 21/00 A3006 RMK A01 T02070003  RH  025%=      5-min Rain = 0
KCA2 142143Z 17006KT 21/00 A3006 RMK A01 T02060003  RH  026%=      5-min Rain = 0
KCA2 142144Z 15003KT 21/00 A3006 RMK A01 T02060003  RH  026%=      5-min Rain = 0
KCA2 142145Z 19005KT 21/00 A3006 RMK A01 T02050003  RH  026%=      5-min Rain = 0
KCA2 142146Z 17004KT 21/00 A3006 RMK A01 T02050003  RH  026%=      5-min Rain = 0
KCA2 142147Z 20002KT 21/00 A3006 RMK A01 T02060002  RH  026%=      5-min Rain = 0
KCA2 142148Z 22004KT 21/00 A3006 RMK A01 T02050003  RH  026%=      5-min Rain = 0
KCA2 142149Z 19005KT 21/00 A3006 RMK A01 T02070003  RH  026%=      5-min Rain = 0
KCA2 142150Z 18004KT 21/00 A3006 RMK A01 T02100004  RH  025%=      5-min Rain = 0
KCA2 142151Z 18009KT 21/00 A3006 RMK A01 T02120004  RH  025%=      5-min Rain = 0
KCA2 142152Z 20007KT 21/00 A3006 RMK A01 T02130003  RH  025%=      5-min Rain = 0
KCA2 142153Z 18009KT 21/00 A3006 RMK A01 T02110004  RH  025%=      5-min Rain = 0
KCA2 142154Z 15007KT 21/00 A3006 RMK A01 T02130003  RH  025%=      5-min Rain = 0
KCA2 142155Z 12004KT 21/00 A3006 RMK A01 T02120003  RH  025%=      5-min Rain = 0
KCA2 142156Z 19004KT 21/00 A3006 RMK A01 T02130004  RH  025%=      5-min Rain = 0
KCA2 142157Z 19004KT 21/00 A3006 RMK A01 T02120003  RH  025%=      5-min Rain = 0
KCA2 142158Z 20005KT 21/00 A3006 RMK A01 T02110003  RH  025%=      5-min Rain = 0
KCA2 142159Z 20007KT 21/00 A3006 RMK A01 T02100003  RH  025%=      5-min Rain = 0
KCA2 142200Z 20005KT 21/00 A3005 RMK A01 T02110003  RH  025%=      5-min Rain = 0
KCA2 142201Z 20002KT 21/00 A3005 RMK A01 T02100002  RH  025%=      5-min Rain = 0
KCA2 142202Z 22002KT 21/00 A3005 RMK A01 T02090003  RH  025%=      5-min Rain = 0
KCA2 142203Z 21005KT 21/00 A3005 RMK A01 T02090003  RH  025%=      5-min Rain = 0
KCA2 142204Z 19005KT 21/01 A3005 RMK A01 T02120005  RH  025%=      5-min Rain = 0
KCA2 142205Z 21003KT 21/00 A3005 RMK A01 T02130004  RH  025%=      5-min Rain = 0
KCA2 142206Z 25005KT 21/00 A3005 RMK A01 T02120004  RH  025%=      5-min Rain = 0
KCA2 142207Z 22006KT 21/00 A3005 RMK A01 T02120004  RH  025%=      5-min Rain = 0
KCA2 142208Z 23005KT 21/00 A3005 RMK A01 T02120004  RH  025%=      5-min Rain = 0
KCA2 142209Z 18007KT 21/00 A3005 RMK A01 T02120003  RH  025%=      5-min Rain = 0
KCA2 142210Z 18007KT 22/00 A3005 RMK A01 T02150002  RH  024%=      5-min Rain = 0
KCA2 142211Z 17007KT 22/00 A3005 RMK A01 T02150001  RH  024%=      5-min Rain = 0
KCA2 142212Z 16007KT 22/00 A3005 RMK A01 T02160002  RH  024%=      5-min Rain = 0
KCA2 142213Z 15007KT 22/00 A3005 RMK A01 T02160003  RH  024%=      5-min Rain = 0
KCA2 142214Z 17008KT 22/00 A3005 RMK A01 T02180003  RH  024%=      5-min Rain = 0
KCA2 142215Z 16008KT 22/00 A3005 RMK A01 T02190003  RH  024%=      5-min Rain = 0
KCA2 142216Z 16008KT 22/00 A3005 RMK A01 T02180002  RH  024%=      5-min Rain = 0
KCA2 142217Z 17007KT 22/00 A3005 RMK A01 T02170003  RH  024%=      5-min Rain = 0
KCA2 142218Z 17006KT 22/00 A3005 RMK A01 T02170002  RH  024%=      5-min Rain = 0
KCA2 142219Z 16005KT 21/00 A3005 RMK A01 T02140002  RH  024%=      5-min Rain = 0
KCA2 142220Z 15005KT 21/00 A3005 RMK A01 T02140002  RH  024%=      5-min Rain = 0
KCA2 142221Z 16007KT 21/00 A3005 RMK A01 T02140003  RH  024%=      5-min Rain = 0
KCA2 142222Z 17006KT 21/00 A3005 RMK A01 T02140002  RH  024%=      5-min Rain = 0
KCA2 142223Z 18007KT 21/00 A3005 RMK A01 T02140003  RH  024%=      5-min Rain = 0
KCA2 142224Z 19006KT 22/00 A3005 RMK A01 T02160004  RH  024%=      5-min Rain = 0
KCA2 142225Z 20005KT 22/00 A3005 RMK A01 T02170003  RH  024%=      5-min Rain = 0
KCA2 142226Z 20007G12KT 22/00 A3004 RMK A01 T02170004  RH  024%=      5-min Rain = 0
KCA2 142227Z 16008KT 22/00 A3004 RMK A01 T02190004  RH  024%=      5-min Rain = 0
KCA2 142228Z 16007KT 22/00 A3004 RMK A01 T02210002  RH  023%=      5-min Rain = 0
KCA2 142229Z 14005KT 22/00 A3004 RMK A01 T02200002  RH  024%=      5-min Rain = 0
KCA2 142230Z 14005KT 22/00 A3004 RMK A01 T02190003  RH  024%=      5-min Rain = 0
KCA2 142231Z 15009KT 22/00 A3004 RMK A01 T02190002  RH  024%=      5-min Rain = 0
KCA2 142232Z 14007KT 22/00 A3004 RMK A01 T02200002  RH  024%=      5-min Rain = 0
KCA2 142233Z 11004KT 22/00 A3004 RMK A01 T02180001  RH  023%=      5-min Rain = 0
KCA2 142234Z 16004KT 22/00 A3004 RMK A01 T02160002  RH  024%=      5-min Rain = 0
KCA2 142235Z 19007KT 22/00 A3004 RMK A01 T02170003  RH  024%=      5-min Rain = 0
KCA2 142236Z 20006KT 22/00 A3004 RMK A01 T02190003  RH  024%=      5-min Rain = 0
KCA2 142237Z 19005KT 22/00 A3004 RMK A01 T02200003  RH  024%=      5-min Rain = 0
KCA2 142238Z 18005KT 22/00 A3004 RMK A01 T02190003  RH  024%=      5-min Rain = 0
KCA2 142239Z 15006KT 22/00 A3004 RMK A01 T02180002  RH  024%=      5-min Rain = 0
KCA2 142240Z 16008KT 22/00 A3004 RMK A01 T02180001  RH  024%=      5-min Rain = 0
KCA2 142241Z 16005KT 22/00 A3004 RMK A01 T02180001  RH  023%=      5-min Rain = 0
KCA2 142242Z 19002KT 22/00 A3004 RMK A01 T02170001  RH  024%=      5-min Rain = 0
KCA2 142243Z 18004KT 22/00 A3004 RMK A01 T02180002  RH  024%=      5-min Rain = 0
KCA2 142244Z 20006KT 22/00 A3004 RMK A01 T02200002  RH  023%=      5-min Rain = 0
KCA2 142245Z 19005KT 22/00 A3004 RMK A01 T02210002  RH  023%=      5-min Rain = 0
KCA2 142246Z 19006KT 22/00 A3004 RMK A01 T02220002  RH  023%=      5-min Rain = 0
KCA2 142247Z 18005KT 22/00 A3003 RMK A01 T02210002  RH  023%=      5-min Rain = 0
KCA2 142248Z 15008KT 22/00 A3003 RMK A01 T02210002  RH  023%=      5-min Rain = 0
KCA2 142249Z 15007KT 22/00 A3003 RMK A01 T02210001  RH  023%=      5-min Rain = 0
KCA2 142250Z 14008KT 22/00 A3003 RMK A01 T02210000  RH  023%=      5-min Rain = 0
KCA2 142251Z 14008KT 22/00 A3003 RMK A01 T02200001  RH  023%=      5-min Rain = 0
KCA2 142252Z 15008KT 22/00 A3003 RMK A01 T02200000  RH  023%=      5-min Rain = 0
KCA2 142253Z 14006KT 22/00 A3003 RMK A01 T022000-0  RH  023%=      5-min Rain = 0
KCA2 142254Z 13005KT 22/00 A3004 RMK A01 T02190000  RH  023%=      5-min Rain = 0
KCA2 142255Z 14006KT 22/00 A3004 RMK A01 T02180001  RH  024%=      5-min Rain = 0
KCA2 142256Z 14008KT 22/00 A3003 RMK A01 T02180001  RH  024%=      5-min Rain = 0
KCA2 142257Z 15007KT 22/00 A3003 RMK A01 T02190001  RH  024%=      5-min Rain = 0
KCA2 142258Z 15005KT 22/00 A3003 RMK A01 T02180001  RH  024%=      5-min Rain = 0
KCA2 142259Z 15009KT 22/00 A3003 RMK A01 T02170001  RH  024%=      5-min Rain = 0
KCA2 142300Z 14006KT 22/00 A3003 RMK A01 T02170001  RH  024%=      5-min Rain = 0
KCA2 142301Z 13006KT 22/00 A3003 RMK A01 T02170001  RH  024%=      5-min Rain = 0
KCA2 142302Z 16006KT 22/00 A3003 RMK A01 T02170001  RH  024%=      5-min Rain = 0
KCA2 142303Z 17006KT 22/00 A3003 RMK A01 T02170001  RH  024%=      5-min Rain = 0
KCA2 142304Z 17004KT 22/00 A3003 RMK A01 T02160001  RH  024%=      5-min Rain = 0
KCA2 142305Z 17003KT 22/00 A3003 RMK A01 T02160002  RH  024%=      5-min Rain = 0
KCA2 142306Z 19003KT 22/00 A3003 RMK A01 T02180001  RH  024%=      5-min Rain = 0
KCA2 142307Z 20004KT 22/00 A3003 RMK A01 T02190002  RH  024%=      5-min Rain = 0
KCA2 142308Z 17002KT 22/00 A3003 RMK A01 T02190001  RH  023%=      5-min Rain = 0
KCA2 142309Z 18002KT 22/00 A3003 RMK A01 T02190002  RH  024%=      5-min Rain = 0
KCA2 142310Z 21003KT 22/00 A3003 RMK A01 T02180001  RH  024%=      5-min Rain = 0
KCA2 142311Z 20003KT 22/00 A3003 RMK A01 T02190002  RH  024%=      5-min Rain = 0
KCA2 142312Z 19002KT 22/00 A3003 RMK A01 T02180002  RH  024%=      5-min Rain = 0
KCA2 142313Z 19003KT 22/00 A3003 RMK A01 T02180002  RH  024%=      5-min Rain = 0
KCA2 142314Z 16005KT 22/00 A3003 RMK A01 T02190002  RH  024%=      5-min Rain = 0
KCA2 142315Z 14006KT 22/00 A3003 RMK A01 T02210002  RH  023%=      5-min Rain = 0
KCA2 142316Z 15004KT 22/00 A3003 RMK A01 T02210001  RH  023%=      5-min Rain = 0
KCA2 142317Z 16006KT 22/00 A3003 RMK A01 T02200001  RH  023%=      5-min Rain = 0
KCA2 142318Z 15005KT 22/00 A3003 RMK A01 T02190001  RH  023%=      5-min Rain = 0
KCA2 142319Z 19005KT 22/00 A3003 RMK A01 T02180002  RH  024%=      5-min Rain = 0
KCA2 142320Z 20006KT 22/00 A3003 RMK A01 T02180002  RH  024%=      5-min Rain = 0
KCA2 142321Z 17007KT 22/00 A3003 RMK A01 T02200003  RH  024%=      5-min Rain = 0
KCA2 142322Z 17005KT 22/00 A3003 RMK A01 T02210002  RH  023%=      5-min Rain = 0
KCA2 142323Z 18005KT 22/00 A3003 RMK A01 T02200002  RH  023%=      5-min Rain = 0
KCA2 142324Z 17004KT 22/00 A3003 RMK A01 T02190002  RH  024%=      5-min Rain = 0
KCA2 142325Z 14003KT 22/00 A3003 RMK A01 T02210003  RH  023%=      5-min Rain = 0
KCA2 142326Z 14003KT 22/00 A3003 RMK A01 T02220002  RH  023%=      5-min Rain = 0
KCA2 142327Z 17004KT 22/00 A3003 RMK A01 T02220002  RH  023%=      5-min Rain = 0
KCA2 142328Z 18004KT 22/00 A3003 RMK A01 T02210001  RH  023%=      5-min Rain = 0
KCA2 142329Z 17003KT 22/00 A3003 RMK A01 T02200001  RH  023%=      5-min Rain = 0
KCA2 142330Z 17001KT 22/00 A3003 RMK A01 T02190000  RH  023%=      5-min Rain = 0
KCA2 142331Z 15002KT 22/00 A3003 RMK A01 T02190000  RH  023%=      5-min Rain = 0
KCA2 142332Z 15004KT 22/00 A3003 RMK A01 T02190001  RH  023%=      5-min Rain = 0
KCA2 142333Z 15005KT 22/00 A3003 RMK A01 T02200001  RH  023%=      5-min Rain = 0
KCA2 142334Z 14004KT 22/00 A3003 RMK A01 T02210001  RH  023%=      5-min Rain = 0
KCA2 142335Z 13003KT 22/00 A3003 RMK A01 T02210001  RH  023%=      5-min Rain = 0
KCA2 142336Z 14003KT 22/00 A3003 RMK A01 T02200001  RH  023%=      5-min Rain = 0
KCA2 142337Z 14003KT 22/00 A3003 RMK A01 T02200001  RH  023%=      5-min Rain = 0
KCA2 142338Z 16002KT 22/00 A3003 RMK A01 T02200002  RH  023%=      5-min Rain = 0
KCA2 142339Z 18002KT 22/00 A3003 RMK A01 T02200001  RH  023%=      5-min Rain = 0
KCA2 142340Z 17002KT 22/00 A3003 RMK A01 T02200002  RH  023%=      5-min Rain = 0
KCA2 142341Z 17003KT 22/00 A3003 RMK A01 T02200003  RH  024%=      5-min Rain = 0
KCA2 142342Z 20005KT 22/00 A3003 RMK A01 T02210003  RH  023%=      5-min Rain = 0
KCA2 142343Z 21004KT 22/00 A3003 RMK A01 T02200003  RH  024%=      5-min Rain = 0
KCA2 142344Z 19005KT 22/00 A3003 RMK A01 T02200004  RH  024%=      5-min Rain = 0
KCA2 142345Z 21005KT 22/00 A3003 RMK A01 T02190004  RH  024%=      5-min Rain = 0
KCA2 142346Z 22005KT 22/00 A3003 RMK A01 T02190003  RH  024%=      5-min Rain = 0
KCA2 142347Z 22005KT 22/00 A3003 RMK A01 T02190003  RH  024%=      5-min Rain = 0
KCA2 142348Z 21005KT 22/00 A3003 RMK A01 T02190003  RH  024%=      5-min Rain = 0
KCA2 142349Z 21004KT 22/00 A3003 RMK A01 T02180003  RH  024%=      5-min Rain = 0
KCA2 142350Z 21004KT 22/00 A3003 RMK A01 T02170003  RH  024%=      5-min Rain = 0
KCA2 142351Z 21003KT 22/00 A3003 RMK A01 T02170002  RH  024%=      5-min Rain = 0
KCA2 142352Z 21003KT 22/00 A3003 RMK A01 T02170002  RH  024%=      5-min Rain = 0
KCA2 142353Z 21003KT 22/00 A3003 RMK A01 T02170003  RH  024%=      5-min Rain = 0
KCA2 142354Z 21003KT 22/00 A3003 RMK A01 T02180003  RH  024%=      5-min Rain = 0
KCA2 142355Z 21003KT 22/00 A3003 RMK A01 T02180003  RH  024%=      5-min Rain = 0
KCA2 142356Z 21004KT 22/00 A3003 RMK A01 T02180003  RH  024%=      5-min Rain = 0
KCA2 142357Z 22003KT 22/00 A3003 RMK A01 T02180003  RH  024%=      5-min Rain = 0
KCA2 142358Z 23003KT 22/00 A3004 RMK A01 T02170002  RH  024%=      5-min Rain = 0
KCA2 142359Z 22004KT 22/00 A3004 RMK A01 T02160001  RH  024%=      5-min Rain = 0
KCA2 150000Z 22004KT 22/00 A3004 RMK A01 T02160002  RH  024%=      5-min Rain = 0
KCA2 150001Z 22004KT 22/00 A3004 RMK A01 T02160002  RH  024%=      5-min Rain = 0
KCA2 150002Z 24004KT 22/00 A3004 RMK A01 T02160002  RH  024%=      5-min Rain = 0
KCA2 150003Z 23003KT 22/00 A3004 RMK A01 T02160002  RH  024%=      5-min Rain = 0
KCA2 150004Z 22003KT 22/00 A3004 RMK A01 T02160001  RH  024%=      5-min Rain = 0
KCA2 150005Z 22003KT 22/00 A3004 RMK A01 T02160002  RH  024%=      5-min Rain = 0
KCA2 150006Z 22003KT 22/00 A3004 RMK A01 T02150002  RH  024%=      5-min Rain = 0
KCA2 150007Z 22003KT 22/00 A3004 RMK A01 T02150002  RH  024%=      5-min Rain = 0
KCA2 150008Z 22003KT 22/00 A3004 RMK A01 T02150002  RH  024%=      5-min Rain = 0
KCA2 150009Z 23003KT 21/00 A3004 RMK A01 T02140001  RH  024%=      5-min Rain = 0
KCA2 150010Z 23002KT 21/00 A3004 RMK A01 T02140002  RH  024%=      5-min Rain = 0
KCA2 150011Z 22002KT 22/00 A3004 RMK A01 T02150002  RH  024%=      5-min Rain = 0
KCA2 150012Z 23003KT 21/00 A3004 RMK A01 T02140002  RH  024%=      5-min Rain = 0
KCA2 150013Z 23004KT 21/00 A3004 RMK A01 T02130002  RH  024%=      5-min Rain = 0
KCA2 150014Z 23004KT 21/00 A3004 RMK A01 T02120001  RH  025%=      5-min Rain = 0
KCA2 150015Z 23003KT 21/00 A3004 RMK A01 T02100002  RH  025%=      5-min Rain = 0
KCA2 150016Z 23003KT 21/00 A3004 RMK A01 T02090002  RH  025%=      5-min Rain = 0
KCA2 150017Z 23003KT 21/00 A3004 RMK A01 T02080001  RH  025%=      5-min Rain = 0
KCA2 150018Z 22004KT 21/00 A3004 RMK A01 T02070002  RH  025%=      5-min Rain = 0
KCA2 150019Z 22004KT 21/00 A3004 RMK A01 T02060001  RH  025%=      5-min Rain = 0
KCA2 150020Z 22004KT 21/00 A3004 RMK A01 T02060002  RH  026%=      5-min Rain = 0
KCA2 150021Z 24004KT 21/00 A3004 RMK A01 T02050002  RH  026%=      5-min Rain = 0
KCA2 150022Z 26004KT 20/00 A3004 RMK A01 T02040001  RH  026%=      5-min Rain = 0
KCA2 150023Z 28005KT 20/00 A3004 RMK A01 T02020000  RH  026%=      5-min Rain = 0
KCA2 150024Z 28005KT 20/00 A3004 RMK A01 T02010001  RH  026%=      5-min Rain = 0
KCA2 150025Z 27005KT 20/00 A3004 RMK A01 T02000001  RH  026%=      5-min Rain = 0
KCA2 150026Z 28005KT 20/00 A3005 RMK A01 T01990001  RH  026%=      5-min Rain = 0
KCA2 150027Z 28005KT 20/00 A3005 RMK A01 T01990001  RH  027%=      5-min Rain = 0
KCA2 150028Z 28006KT 20/00 A3005 RMK A01 T01980001  RH  027%=      5-min Rain = 0
KCA2 150029Z 29006KT 20/00 A3005 RMK A01 T01970001  RH  027%=      5-min Rain = 0
KCA2 150030Z 29006KT 20/00 A3005 RMK A01 T01970001  RH  027%=      5-min Rain = 0
KCA2 150031Z 29006KT 20/00 A3005 RMK A01 T01960001  RH  027%=      5-min Rain = 0
KCA2 150032Z 28005KT 20/00 A3005 RMK A01 T01970002  RH  027%=      5-min Rain = 0
KCA2 150033Z 28005KT 20/00 A3005 RMK A01 T01960002  RH  027%=      5-min Rain = 0
KCA2 150034Z 28005KT 20/00 A3005 RMK A01 T01960001  RH  027%=      5-min Rain = 0
KCA2 150035Z 28005KT 20/00 A3005 RMK A01 T01950002  RH  027%=      5-min Rain = 0
KCA2 150036Z 28005KT 20/00 A3005 RMK A01 T01950002  RH  027%=      5-min Rain = 0
KCA2 150037Z 28004KT 20/00 A3005 RMK A01 T01950003  RH  027%=      5-min Rain = 0
KCA2 150038Z 28005KT 20/00 A3005 RMK A01 T01950003  RH  027%=      5-min Rain = 0
KCA2 150039Z 29005KT 20/00 A3005 RMK A01 T01950004  RH  028%=      5-min Rain = 0
KCA2 150040Z 29005KT 20/01 A3005 RMK A01 T01950005  RH  028%=      5-min Rain = 0
KCA2 150041Z 29005KT 20/01 A3005 RMK A01 T01950006  RH  028%=      5-min Rain = 0
KCA2 150042Z 29004KT 19/01 A3005 RMK A01 T01940006  RH  028%=      5-min Rain = 0
KCA2 150043Z 28004KT 19/01 A3005 RMK A01 T01940007  RH  028%=      5-min Rain = 0
KCA2 150044Z 29004KT 19/01 A3005 RMK A01 T01930007  RH  029%=      5-min Rain = 0
KCA2 150045Z 29004KT 19/01 A3005 RMK A01 T01940007  RH  029%=      5-min Rain = 0
KCA2 150046Z 30003KT 19/01 A3005 RMK A01 T01930007  RH  029%=      5-min Rain = 0
KCA2 150047Z 30003KT 19/01 A3005 RMK A01 T01930007  RH  029%=      5-min Rain = 0
KCA2 150048Z 34003KT 19/01 A3005 RMK A01 T01930008  RH  029%=      5-min Rain = 0
KCA2 150049Z 01004KT 19/01 A3005 RMK A01 T01930009  RH  029%=      5-min Rain = 0
KCA2 150050Z 01004KT 19/01 A3005 RMK A01 T01940010  RH  029%=      5-min Rain = 0
KCA2 150051Z 36004KT 19/01 A3005 RMK A01 T01940011  RH  029%=      5-min Rain = 0
KCA2 150052Z 35005KT 20/01 A3005 RMK A01 T01950013  RH  030%=      5-min Rain = 0
KCA2 150053Z 35004KT 20/01 A3005 RMK A01 T01950013  RH  030%=      5-min Rain = 0
KCA2 150054Z 34004KT 20/01 A3005 RMK A01 T01960013  RH  029%=      5-min Rain = 0
KCA2 150055Z 34005KT 20/01 A3005 RMK A01 T01960013  RH  029%=      5-min Rain = 0
KCA2 150056Z 33003KT 20/01 A3005 RMK A01 T01960013  RH  029%=      5-min Rain = 0
KCA2 150057Z 33004KT 20/01 A3005 RMK A01 T01950013  RH  030%=      5-min Rain = 0
KCA2 150058Z 34006KT 19/01 A3005 RMK A01 T01940012  RH  030%=      5-min Rain = 0
KCA2 150059Z 35006KT 19/01 A3005 RMK A01 T01930013  RH  030%=      5-min Rain = 0
KCA2 150100Z 34005KT 19/01 A3005 RMK A01 T01940014  RH  030%=      5-min Rain = 0
KCA2 150101Z 34005KT 19/01 A3005 RMK A01 T01940014  RH  030%=      5-min Rain = 0
KCA2 150102Z 35005KT 19/01 A3005 RMK A01 T01930013  RH  030%=      5-min Rain = 0
KCA2 150103Z 35005KT 19/01 A3005 RMK A01 T01930014  RH  030%=      5-min Rain = 0
KCA2 150104Z 34005KT 19/01 A3005 RMK A01 T01930013  RH  030%=      5-min Rain = 0
KCA2 150105Z 34006KT 19/01 A3005 RMK A01 T01920013  RH  030%=      5-min Rain = 0
KCA2 150106Z 34005KT 19/01 A3005 RMK A01 T01920014  RH  030%=      5-min Rain = 0
KCA2 150107Z 34005KT 19/01 A3005 RMK A01 T01910014  RH  030%=      5-min Rain = 0
KCA2 150108Z 34006KT 19/01 A3005 RMK A01 T01910014  RH  031%=      5-min Rain = 0
KCA2 150109Z 34005KT 19/01 A3005 RMK A01 T01900014  RH  031%=      5-min Rain = 0
KCA2 150110Z 35005KT 19/01 A3005 RMK A01 T01900014  RH  031%=      5-min Rain = 0
KCA2 150111Z 35005KT 19/01 A3005 RMK A01 T01900014  RH  031%=      5-min Rain = 0
KCA2 150112Z 35004KT 19/01 A3005 RMK A01 T01890013  RH  031%=      5-min Rain = 0
KCA2 150113Z 35004KT 19/01 A3005 RMK A01 T01880014  RH  031%=      5-min Rain = 0
KCA2 150114Z 01004KT 19/01 A3005 RMK A01 T01880013  RH  031%=      5-min Rain = 0
KCA2 150115Z 01004KT 19/01 A3005 RMK A01 T01880013  RH  031%=      5-min Rain = 0
KCA2 150116Z 02004KT 19/01 A3005 RMK A01 T01870013  RH  031%=      5-min Rain = 0
KCA2 150117Z 02003KT 19/01 A3005 RMK A01 T01860012  RH  031%=      5-min Rain = 0
KCA2 150118Z 02003KT 19/01 A3005 RMK A01 T01860012  RH  031%=      5-min Rain = 0
KCA2 150119Z 02003KT 19/01 A3005 RMK A01 T01850012  RH  031%=      5-min Rain = 0
KCA2 150120Z 03002KT 19/01 A3005 RMK A01 T01850012  RH  031%=      5-min Rain = 0
KCA2 150121Z 00002KT 18/01 A3005 RMK A01 T01840012  RH  031%=      5-min Rain = 0
KCA2 150122Z 29001KT 18/01 A3005 RMK A01 T01840012  RH  032%=      5-min Rain = 0
KCA2 150123Z 26002KT 18/01 A3005 RMK A01 T01820012  RH  032%=      5-min Rain = 0
KCA2 150124Z 25003KT 18/01 A3005 RMK A01 T01800011  RH  032%=      5-min Rain = 0
KCA2 150125Z 28004KT 18/01 A3005 RMK A01 T01790011  RH  032%=      5-min Rain = 0
KCA2 150126Z 27004KT 18/01 A3005 RMK A01 T01770010  RH  032%=      5-min Rain = 0
KCA2 150127Z 27006KT 18/01 A3005 RMK A01 T01750009  RH  032%=      5-min Rain = 0
KCA2 150128Z 27007KT 17/01 A3005 RMK A01 T01740010  RH  033%=      5-min Rain = 0
KCA2 150129Z 28006KT 17/01 A3005 RMK A01 T01740010  RH  033%=      5-min Rain = 0
KCA2 150130Z 28006KT 17/01 A3005 RMK A01 T01730009  RH  033%=      5-min Rain = 0
KCA2 150131Z 28006KT 17/01 A3005 RMK A01 T01730010  RH  033%=      5-min Rain = 0
KCA2 150132Z 29005KT 17/01 A3005 RMK A01 T01740011  RH  033%=      5-min Rain = 0
KCA2 150133Z 29005KT 17/01 A3005 RMK A01 T01740011  RH  033%=      5-min Rain = 0
KCA2 150134Z 29005KT 17/01 A3005 RMK A01 T01740011  RH  033%=      5-min Rain = 0
KCA2 150135Z 29005KT 17/01 A3005 RMK A01 T01740012  RH  034%=      5-min Rain = 0
KCA2 150136Z 30005KT 17/01 A3005 RMK A01 T01730011  RH  034%=      5-min Rain = 0
KCA2 150137Z 29004KT 17/01 A3005 RMK A01 T01730012  RH  034%=      5-min Rain = 0
KCA2 150138Z 28004KT 17/01 A3005 RMK A01 T01720012  RH  034%=      5-min Rain = 0
KCA2 150139Z 28004KT 17/01 A3005 RMK A01 T01720012  RH  034%=      5-min Rain = 0
KCA2 150140Z 27005KT 17/01 A3005 RMK A01 T01720012  RH  034%=      5-min Rain = 0
KCA2 150141Z 26005KT 17/01 A3005 RMK A01 T01720012  RH  034%=      5-min Rain = 0
KCA2 150142Z 27005KT 17/01 A3006 RMK A01 T01720011  RH  034%=      5-min Rain = 0
KCA2 150143Z 27005KT 17/01 A3006 RMK A01 T01720011  RH  034%=      5-min Rain = 0
KCA2 150144Z 27006KT 17/01 A3006 RMK A01 T01720011  RH  034%=      5-min Rain = 0
KCA2 150145Z 27006KT 17/01 A3006 RMK A01 T01710012  RH  034%=      5-min Rain = 0
KCA2 150146Z 27006KT 17/01 A3006 RMK A01 T01700012  RH  034%=      5-min Rain = 0
KCA2 150147Z 27006KT 17/01 A3006 RMK A01 T01700012  RH  034%=      5-min Rain = 0
KCA2 150148Z 27006KT 17/01 A3006 RMK A01 T01700012  RH  034%=      5-min Rain = 0
KCA2 150149Z 27005KT 17/01 A3006 RMK A01 T01700012  RH  034%=      5-min Rain = 0
KCA2 150150Z 28006KT 17/01 A3006 RMK A01 T01690012  RH  035%=      5-min Rain = 0
KCA2 150151Z 28007KT 17/01 A3006 RMK A01 T01680012  RH  035%=      5-min Rain = 0
KCA2 150152Z 28007KT 17/01 A3006 RMK A01 T01660011  RH  035%=      5-min Rain = 0
KCA2 150153Z 29007KT 17/01 A3006 RMK A01 T01650011  RH  035%=      5-min Rain = 0
KCA2 150154Z 29007KT 17/01 A3006 RMK A01 T01650012  RH  036%=      5-min Rain = 0
KCA2 150155Z 30008KT 16/01 A3006 RMK A01 T01640012  RH  036%=      5-min Rain = 0
KCA2 150156Z 29008KT 16/01 A3006 RMK A01 T01640013  RH  036%=      5-min Rain = 0
KCA2 150157Z 29009KT 16/01 A3006 RMK A01 T01640013  RH  036%=      5-min Rain = 0
KCA2 150158Z 28007KT 17/01 A3006 RMK A01 T01650013  RH  036%=      5-min Rain = 0
KCA2 150159Z 28008KT 17/01 A3006 RMK A01 T01650013  RH  036%=      5-min Rain = 0
KCA2 150200Z 27007KT 17/01 A3006 RMK A01 T01650013  RH  036%=      5-min Rain = 0
KCA2 150201Z 27006KT 17/01 A3007 RMK A01 T01650013  RH  036%=      5-min Rain = 0
KCA2 150202Z 26005KT 16/01 A3007 RMK A01 T01640012  RH  036%=      5-min Rain = 0
KCA2 150203Z 27007KT 16/01 A3007 RMK A01 T01620011  RH  036%=      5-min Rain = 0
KCA2 150204Z 27007KT 16/01 A3007 RMK A01 T01600011  RH  036%=      5-min Rain = 0
KCA2 150205Z 28008KT 16/01 A3007 RMK A01 T01590012  RH  037%=      5-min Rain = 0
KCA2 150206Z 28007KT 16/01 A3007 RMK A01 T01590012  RH  037%=      5-min Rain = 0
KCA2 150207Z 28009KT 16/01 A3007 RMK A01 T01580012  RH  037%=      5-min Rain = 0
KCA2 150208Z 28008KT 16/01 A3007 RMK A01 T01570012  RH  037%=      5-min Rain = 0
KCA2 150209Z 28008KT 16/01 A3007 RMK A01 T01570012  RH  037%=      5-min Rain = 0
KCA2 150210Z 28008KT 16/01 A3007 RMK A01 T01560012  RH  038%=      5-min Rain = 0
KCA2 150211Z 27009KT 16/01 A3007 RMK A01 T01550012  RH  038%=      5-min Rain = 0
KCA2 150212Z 28009KT 16/01 A3007 RMK A01 T01560013  RH  038%=      5-min Rain = 0
KCA2 150213Z 28009KT 16/01 A3007 RMK A01 T01560013  RH  038%=      5-min Rain = 0
KCA2 150214Z 28009KT 16/01 A3007 RMK A01 T01560013  RH  038%=      5-min Rain = 0
KCA2 150215Z 28009KT 16/01 A3007 RMK A01 T01550013  RH  038%=      5-min Rain = 0
KCA2 150216Z 27008KT 16/01 A3007 RMK A01 T01560013  RH  038%=      5-min Rain = 0
KCA2 150217Z 28009KT 16/01 A3007 RMK A01 T01560013  RH  038%=      5-min Rain = 0
KCA2 150218Z 27008KT 16/01 A3007 RMK A01 T01550013  RH  038%=      5-min Rain = 0
KCA2 150219Z 27007KT 16/01 A3008 RMK A01 T01550013  RH  038%=      5-min Rain = 0
KCA2 150220Z 27008KT 15/01 A3008 RMK A01 T01540013  RH  038%=      5-min Rain = 0
KCA2 150221Z 27008KT 15/01 A3008 RMK A01 T01530013  RH  038%=      5-min Rain = 0
KCA2 150222Z 27008KT 15/01 A3008 RMK A01 T01530013  RH  039%=      5-min Rain = 0
KCA2 150223Z 27009KT 15/01 A3008 RMK A01 T01530013  RH  039%=      5-min Rain = 0
KCA2 150224Z 27009KT 15/01 A3008 RMK A01 T01530013  RH  039%=      5-min Rain = 0
KCA2 150225Z 27008KT 15/01 A3008 RMK A01 T01520013  RH  039%=      5-min Rain = 0
KCA2 150226Z 28008KT 15/01 A3008 RMK A01 T01510012  RH  039%=      5-min Rain = 0
KCA2 150227Z 28009KT 15/01 A3008 RMK A01 T01500012  RH  039%=      5-min Rain = 0
KCA2 150228Z 27009KT 15/01 A3008 RMK A01 T01490013  RH  040%=      5-min Rain = 0
KCA2 150229Z 27008KT 15/01 A3008 RMK A01 T01490012  RH  039%=      5-min Rain = 0
KCA2 150230Z 27010KT 15/01 A3008 RMK A01 T01480012  RH  040%=      5-min Rain = 0
KCA2 150231Z 27010KT 15/01 A3008 RMK A01 T01470012  RH  040%=      5-min Rain = 0
KCA2 150232Z 27009KT 15/01 A3008 RMK A01 T01470012  RH  040%=      5-min Rain = 0
KCA2 150233Z 28010KT 15/01 A3008 RMK A01 T01460012  RH  040%=      5-min Rain = 0
KCA2 150234Z 28010KT 15/01 A3008 RMK A01 T01450012  RH  040%=      5-min Rain = 0
KCA2 150235Z 28011KT 15/01 A3008 RMK A01 T01450012  RH  040%=      5-min Rain = 0
KCA2 150236Z 27010KT 14/01 A3008 RMK A01 T01440012  RH  041%=      5-min Rain = 0
KCA2 150237Z 27009KT 14/01 A3008 RMK A01 T01430013  RH  041%=      5-min Rain = 0
KCA2 150238Z 27010KT 14/01 A3008 RMK A01 T01430013  RH  041%=      5-min Rain = 0
KCA2 150239Z 27011KT 14/01 A3008 RMK A01 T01430013  RH  041%=      5-min Rain = 0
KCA2 150240Z 27010KT 14/01 A3008 RMK A01 T01430013  RH  041%=      5-min Rain = 0
KCA2 150241Z 27011KT 14/01 A3008 RMK A01 T01430014  RH  042%=      5-min Rain = 0
KCA2 150242Z 27010KT 14/02 A3008 RMK A01 T01430015  RH  042%=      5-min Rain = 0
KCA2 150243Z 27010KT 14/02 A3009 RMK A01 T01420015  RH  042%=      5-min Rain = 0
KCA2 150244Z 27010KT 14/02 A3009 RMK A01 T01420015  RH  042%=      5-min Rain = 0
KCA2 150245Z 27011KT 14/02 A3009 RMK A01 T01410015  RH  042%=      5-min Rain = 0
KCA2 150246Z 27011KT 14/02 A3009 RMK A01 T01410015  RH  042%=      5-min Rain = 0
KCA2 150247Z 27012KT 14/02 A3009 RMK A01 T01410015  RH  043%=      5-min Rain = 0
KCA2 150248Z 28012KT 14/02 A3009 RMK A01 T01400015  RH  043%=      5-min Rain = 0
KCA2 150249Z 27010KT 14/02 A3009 RMK A01 T01400015  RH  043%=      5-min Rain = 0
KCA2 150250Z 27011KT 14/02 A3009 RMK A01 T01400015  RH  043%=      5-min Rain = 0
KCA2 150251Z 28010KT 14/02 A3009 RMK A01 T01390015  RH  043%=      5-min Rain = 0
KCA2 150252Z 27012KT 14/02 A3009 RMK A01 T01390015  RH  043%=      5-min Rain = 0
KCA2 150253Z 27012KT 14/02 A3009 RMK A01 T01390016  RH  043%=      5-min Rain = 0
KCA2 150254Z 28012KT 14/02 A3009 RMK A01 T01400016  RH  043%=      5-min Rain = 0
KCA2 150255Z 27012KT 14/02 A3009 RMK A01 T01400015  RH  043%=      5-min Rain = 0
KCA2 150256Z 28012KT 14/02 A3009 RMK A01 T01390015  RH  043%=      5-min Rain = 0
KCA2 150257Z 27012KT 14/02 A3009 RMK A01 T01390016  RH  043%=      5-min Rain = 0
KCA2 150258Z 27011KT 14/02 A3009 RMK A01 T01380016  RH  043%=      5-min Rain = 0
KCA2 150259Z 27010KT 14/02 A3009 RMK A01 T01380016  RH  044%=      5-min Rain = 0
KCA2 150300Z 27012KT 14/02 A3009 RMK A01 T01370016  RH  044%=      5-min Rain = 0
KCA2 150301Z 28013KT 14/02 A3009 RMK A01 T01370016  RH  044%=      5-min Rain = 0
KCA2 150302Z 28013KT 14/02 A3009 RMK A01 T01380016  RH  044%=      5-min Rain = 0
KCA2 150303Z 28011KT 14/02 A3009 RMK A01 T01380016  RH  044%=      5-min Rain = 0
KCA2 150304Z 28011KT 14/02 A3009 RMK A01 T01380016  RH  044%=      5-min Rain = 0
KCA2 150305Z 27011KT 14/02 A3009 RMK A01 T01380016  RH  044%=      5-min Rain = 0
KCA2 150306Z 27010KT 14/02 A3009 RMK A01 T01370016  RH  044%=      5-min Rain = 0
KCA2 150307Z 27011KT 14/02 A3009 RMK A01 T01370016  RH  044%=      5-min Rain = 0
KCA2 150308Z 27012KT 14/02 A3009 RMK A01 T01370016  RH  044%=      5-min Rain = 0
KCA2 150309Z 27011KT 14/02 A301 RMK A01 T01360016  RH  044%=      5-min Rain = 0
KCA2 150310Z 27012KT 14/02 A301 RMK A01 T01360016  RH  044%=      5-min Rain = 0
KCA2 150311Z 27011KT 14/02 A301 RMK A01 T01360017  RH  044%=      5-min Rain = 0
KCA2 150312Z 27009KT 14/02 A301 RMK A01 T01360017  RH  044%=      5-min Rain = 0
KCA2 150313Z 27009KT 14/02 A301 RMK A01 T01350016  RH  045%=      5-min Rain = 0
KCA2 150314Z 27011KT 13/02 A301 RMK A01 T01340016  RH  045%=      5-min Rain = 0
KCA2 150315Z 27010KT 13/02 A301 RMK A01 T01340017  RH  045%=      5-min Rain = 0
KCA2 150316Z 27011KT 13/02 A301 RMK A01 T01340017  RH  045%=      5-min Rain = 0
KCA2 150317Z 27011KT 13/02 A301 RMK A01 T01340017  RH  045%=      5-min Rain = 0
KCA2 150318Z 27011KT 13/02 A301 RMK A01 T01340017  RH  045%=      5-min Rain = 0
KCA2 150319Z 27012KT 13/02 A301 RMK A01 T01340017  RH  045%=      5-min Rain = 0
KCA2 150320Z 27011KT 13/02 A301 RMK A01 T01340017  RH  045%=      5-min Rain = 0
KCA2 150321Z 27010KT 13/02 A3011 RMK A01 T01340017  RH  045%=      5-min Rain = 0
KCA2 150322Z 28011KT 13/02 A3011 RMK A01 T01320017  RH  045%=      5-min Rain = 0
KCA2 150323Z 27012KT 13/02 A3011 RMK A01 T01320018  RH  046%=      5-min Rain = 0
KCA2 150324Z 27013KT 13/02 A3011 RMK A01 T01320018  RH  046%=      5-min Rain = 0
KCA2 150325Z 27013KT 13/02 A3011 RMK A01 T01320018  RH  046%=      5-min Rain = 0
KCA2 150326Z 27012KT 13/02 A3011 RMK A01 T01320018  RH  046%=      5-min Rain = 0
KCA2 150327Z 27012KT 13/02 A3011 RMK A01 T01320018  RH  046%=      5-min Rain = 0
KCA2 150328Z 27012KT 13/02 A3011 RMK A01 T01320018  RH  046%=      5-min Rain = 0
KCA2 150329Z 27011KT 13/02 A3011 RMK A01 T01320018  RH  046%=      5-min Rain = 0
KCA2 150330Z 27011KT 13/02 A3011 RMK A01 T01310018  RH  046%=      5-min Rain = 0
KCA2 150331Z 27010KT 13/02 A3011 RMK A01 T01310018  RH  046%=      5-min Rain = 0
KCA2 150332Z 27010KT 13/02 A3011 RMK A01 T01310018  RH  046%=      5-min Rain = 0
KCA2 150333Z 27009KT 13/02 A3011 RMK A01 T01310018  RH  046%=      5-min Rain = 0
KCA2 150334Z 27010KT 13/02 A3011 RMK A01 T01300018  RH  046%=      5-min Rain = 0
KCA2 150335Z 27011KT 13/02 A3011 RMK A01 T01290018  RH  047%=      5-min Rain = 0
KCA2 150336Z 26011KT 13/02 A3011 RMK A01 T01290018  RH  047%=      5-min Rain = 0
KCA2 150337Z 27010KT 13/02 A3011 RMK A01 T01290018  RH  047%=      5-min Rain = 0
KCA2 150338Z 27010KT 13/02 A3011 RMK A01 T01280018  RH  047%=      5-min Rain = 0
KCA2 150339Z 27009KT 13/02 A3011 RMK A01 T01280018  RH  047%=      5-min Rain = 0
KCA2 150340Z 27010KT 13/02 A3011 RMK A01 T01280019  RH  047%=      5-min Rain = 0
KCA2 150341Z 27012KT 13/02 A3011 RMK A01 T01270018  RH  047%=      5-min Rain = 0
KCA2 150342Z 27011KT 13/02 A3011 RMK A01 T01270018  RH  047%=      5-min Rain = 0
KCA2 150343Z 27012KT 13/02 A3011 RMK A01 T01270018  RH  047%=      5-min Rain = 0
KCA2 150344Z 28012KT 13/02 A3011 RMK A01 T01280019  RH  047%=      5-min Rain = 0
KCA2 150345Z 27010KT 13/02 A3011 RMK A01 T01280019  RH  047%=      5-min Rain = 0
KCA2 150346Z 27010KT 13/02 A3011 RMK A01 T01280019  RH  047%=      5-min Rain = 0
KCA2 150347Z 27009KT 13/02 A3011 RMK A01 T01280019  RH  047%=      5-min Rain = 0
KCA2 150348Z 28011KT 13/02 A3011 RMK A01 T01270019  RH  048%=      5-min Rain = 0
KCA2 150349Z 28008KT 13/02 A3011 RMK A01 T01270019  RH  048%=      5-min Rain = 0
KCA2 150350Z 28008KT 13/02 A3011 RMK A01 T01270019  RH  048%=      5-min Rain = 0
KCA2 150351Z 29010KT 13/02 A3011 RMK A01 T01270019  RH  048%=      5-min Rain = 0
KCA2 150352Z 28010KT 13/02 A3011 RMK A01 T01260019  RH  048%=      5-min Rain = 0
KCA2 150353Z 28011KT 13/02 A3011 RMK A01 T01260019  RH  048%=      5-min Rain = 0
KCA2 150354Z 28012KT 13/02 A3011 RMK A01 T01270019  RH  048%=      5-min Rain = 0
KCA2 150355Z 27011KT 13/02 A3011 RMK A01 T01260019  RH  048%=      5-min Rain = 0
KCA2 150356Z 28011KT 13/02 A3012 RMK A01 T01270019  RH  048%=      5-min Rain = 0
KCA2 150357Z 27012KT 13/02 A3012 RMK A01 T01270019  RH  048%=      5-min Rain = 0
KCA2 150358Z 28012KT 13/02 A3012 RMK A01 T01270019  RH  048%=      5-min Rain = 0
KCA2 150359Z 28010KT 13/02 A3011 RMK A01 T01280019  RH  048%=      5-min Rain = 0
KCA2 150400Z 28013KT 13/02 A3011 RMK A01 T01280019  RH  048%=      5-min Rain = 0
KCA2 150401Z 28012KT 13/02 A3011 RMK A01 T01280019  RH  048%=      5-min Rain = 0
KCA2 150402Z 28011KT 13/02 A3011 RMK A01 T01280019  RH  048%=      5-min Rain = 0
KCA2 150403Z 28011KT 13/02 A3011 RMK A01 T01280019  RH  048%=      5-min Rain = 0
KCA2 150404Z 28011KT 13/02 A3011 RMK A01 T01270019  RH  048%=      5-min Rain = 0
KCA2 150405Z 28012KT 13/02 A3011 RMK A01 T01270019  RH  048%=      5-min Rain = 0
KCA2 150406Z 28011KT 13/02 A3011 RMK A01 T01270019  RH  048%=      5-min Rain = 0
KCA2 150407Z 27011KT 13/02 A3011 RMK A01 T01270019  RH  048%=      5-min Rain = 0
KCA2 150408Z 28013KT 13/02 A3012 RMK A01 T01260019  RH  048%=      5-min Rain = 0
KCA2 150409Z 28011KT 13/02 A3012 RMK A01 T01260019  RH  048%=      5-min Rain = 0
KCA2 150410Z 28009KT 13/02 A3012 RMK A01 T01270019  RH  048%=      5-min Rain = 0
KCA2 150411Z 28009KT 13/02 A3012 RMK A01 T01260019  RH  048%=      5-min Rain = 0
KCA2 150412Z 28012KT 13/02 A3012 RMK A01 T01260019  RH  048%=      5-min Rain = 0
KCA2 150413Z 28012KT 13/02 A3012 RMK A01 T01260019  RH  048%=      5-min Rain = 0
KCA2 150414Z 27012KT 13/02 A3012 RMK A01 T01260019  RH  048%=      5-min Rain = 0
KCA2 150415Z 27011KT 13/02 A3012 RMK A01 T01260019  RH  048%=      5-min Rain = 0
KCA2 150416Z 28012KT 13/02 A3012 RMK A01 T01260019  RH  048%=      5-min Rain = 0
KCA2 150417Z 28013KT 13/02 A3012 RMK A01 T01250019  RH  048%=      5-min Rain = 0
KCA2 150418Z 28012KT 13/02 A3011 RMK A01 T01250019  RH  048%=      5-min Rain = 0
KCA2 150419Z 29011KT 13/02 A3011 RMK A01 T01250019  RH  048%=      5-min Rain = 0
KCA2 150420Z 28010KT 12/02 A3011 RMK A01 T01240019  RH  049%=      5-min Rain = 0
KCA2 150421Z 29010KT 12/02 A3012 RMK A01 T01240019  RH  049%=      5-min Rain = 0
KCA2 150422Z 28011KT 12/02 A3012 RMK A01 T01240020  RH  049%=      5-min Rain = 0
KCA2 150423Z 28010KT 12/02 A3012 RMK A01 T01240019  RH  049%=      5-min Rain = 0
KCA2 150424Z 28010KT 12/02 A3012 RMK A01 T01240019  RH  049%=      5-min Rain = 0
KCA2 150425Z 28008KT 12/02 A3012 RMK A01 T01240019  RH  049%=      5-min Rain = 0
KCA2 150426Z 28010KT 12/02 A3012 RMK A01 T01230019  RH  049%=      5-min Rain = 0
KCA2 150427Z 27011KT 12/02 A3012 RMK A01 T01230019  RH  049%=      5-min Rain = 0
KCA2 150428Z 28010KT 12/02 A3012 RMK A01 T01220019  RH  049%=      5-min Rain = 0
KCA2 150429Z 28011KT 12/02 A3012 RMK A01 T01220019  RH  049%=      5-min Rain = 0
KCA2 150430Z 28011KT 12/02 A3012 RMK A01 T01220019  RH  050%=      5-min Rain = 0
KCA2 150431Z 28012KT 12/02 A3012 RMK A01 T01210019  RH  050%=      5-min Rain = 0
KCA2 150432Z 28013KT 12/02 A3012 RMK A01 T01210019  RH  050%=      5-min Rain = 0
KCA2 150433Z 28011KT 12/02 A3012 RMK A01 T01210020  RH  050%=      5-min Rain = 0
KCA2 150434Z 28011KT 12/02 A3012 RMK A01 T01210020  RH  050%=      5-min Rain = 0
KCA2 150435Z 28012KT 12/02 A3012 RMK A01 T01210020  RH  050%=      5-min Rain = 0
KCA2 150436Z 28011KT 12/02 A3012 RMK A01 T01210020  RH  050%=      5-min Rain = 0
KCA2 150437Z 28010KT 12/02 A3012 RMK A01 T01210020  RH  050%=      5-min Rain = 0
KCA2 150438Z 28010KT 12/02 A3012 RMK A01 T01200019  RH  050%=      5-min Rain = 0
KCA2 150439Z 28012KT 12/02 A3012 RMK A01 T01190019  RH  050%=      5-min Rain = 0
KCA2 150440Z 29011KT 12/02 A3012 RMK A01 T01190020  RH  050%=      5-min Rain = 0
KCA2 150441Z 28012KT 12/02 A3012 RMK A01 T01200020  RH  050%=      5-min Rain = 0
KCA2 150442Z 29011KT 12/02 A3012 RMK A01 T01200020  RH  050%=      5-min Rain = 0
KCA2 150443Z 28011KT 12/02 A3012 RMK A01 T01200019  RH  050%=      5-min Rain = 0
KCA2 150444Z 29010KT 12/02 A3012 RMK A01 T01200020  RH  050%=      5-min Rain = 0
KCA2 150445Z 29010KT 12/02 A3012 RMK A01 T01200020  RH  050%=      5-min Rain = 0
KCA2 150446Z 28010KT 12/02 A3012 RMK A01 T01200020  RH  050%=      5-min Rain = 0
KCA2 150447Z 29011KT 12/02 A3012 RMK A01 T01200020  RH  050%=      5-min Rain = 0
KCA2 150448Z 29010KT 12/02 A3012 RMK A01 T01200020  RH  050%=      5-min Rain = 0
KCA2 150449Z 29010KT 12/02 A3012 RMK A01 T01200020  RH  050%=      5-min Rain = 0
KCA2 150450Z 28011KT 12/02 A3012 RMK A01 T01190020  RH  051%=      5-min Rain = 0
KCA2 150451Z 29010KT 12/02 A3012 RMK A01 T01190020  RH  051%=      5-min Rain = 0
KCA2 150452Z 29008KT 12/02 A3012 RMK A01 T01190020  RH  051%=      5-min Rain = 0
KCA2 150453Z 29010KT 12/02 A3012 RMK A01 T01190021  RH  051%=      5-min Rain = 0
KCA2 150454Z 29010KT 12/02 A3012 RMK A01 T01190020  RH  051%=      5-min Rain = 0
KCA2 150455Z 29010KT 12/02 A3012 RMK A01 T01190021  RH  051%=      5-min Rain = 0
KCA2 150456Z 29010KT 12/02 A3012 RMK A01 T01180020  RH  051%=      5-min Rain = 0
KCA2 150457Z 29010KT 12/02 A3012 RMK A01 T01180020  RH  051%=      5-min Rain = 0
KCA2 150458Z 28010KT 12/02 A3012 RMK A01 T01180020  RH  051%=      5-min Rain = 0
KCA2 150459Z 29010KT 12/02 A3012 RMK A01 T01180020  RH  051%=      5-min Rain = 0
KCA2 150500Z 29010KT 12/02 A3012 RMK A01 T01170020  RH  051%=      5-min Rain = 0
KCA2 150501Z 28010KT 12/02 A3012 RMK A01 T01170020  RH  051%=      5-min Rain = 0
KCA2 150502Z 29009KT 12/02 A3012 RMK A01 T01170020  RH  051%=      5-min Rain = 0
KCA2 150503Z 29009KT 12/02 A3012 RMK A01 T01170020  RH  051%=      5-min Rain = 0
KCA2 150504Z 29007KT 12/02 A3012 RMK A01 T01170020  RH  051%=      5-min Rain = 0
KCA2 150505Z 29010KT 12/02 A3012 RMK A01 T01160020  RH  052%=      5-min Rain = 0
KCA2 150506Z 29010KT 12/02 A3012 RMK A01 T01160020  RH  052%=      5-min Rain = 0
KCA2 150507Z 29011KT 12/02 A3011 RMK A01 T01160020  RH  052%=      5-min Rain = 0
KCA2 150508Z 29010KT 12/02 A3011 RMK A01 T01150020  RH  052%=      5-min Rain = 0
KCA2 150509Z 29011KT 12/02 A3011 RMK A01 T01150020  RH  052%=      5-min Rain = 0
KCA2 150510Z 28010KT 12/02 A3011 RMK A01 T01150020  RH  052%=      5-min Rain = 0
KCA2 150511Z 29010KT 12/02 A3011 RMK A01 T01150020  RH  052%=      5-min Rain = 0
KCA2 150512Z 29009KT 12/02 A3012 RMK A01 T01150020  RH  052%=      5-min Rain = 0
KCA2 150513Z 29011KT 11/02 A3012 RMK A01 T01140020  RH  052%=      5-min Rain = 0
KCA2 150514Z 29011KT 11/02 A3012 RMK A01 T01140020  RH  052%=      5-min Rain = 0
KCA2 150515Z 29008KT 11/02 A3012 RMK A01 T01140020  RH  052%=      5-min Rain = 0
KCA2 150516Z 29011KT 11/02 A3012 RMK A01 T01140020  RH  052%=      5-min Rain = 0
KCA2 150517Z 29011KT 11/02 A3012 RMK A01 T01130020  RH  053%=      5-min Rain = 0
KCA2 150518Z 29010KT 11/02 A3012 RMK A01 T01130020  RH  053%=      5-min Rain = 0
KCA2 150519Z 29012KT 11/02 A3012 RMK A01 T01140020  RH  052%=      5-min Rain = 0
KCA2 150520Z 29012KT 11/02 A3012 RMK A01 T01140020  RH  052%=      5-min Rain = 0
KCA2 150521Z 29011KT 11/02 A3012 RMK A01 T01140020  RH  052%=      5-min Rain = 0
KCA2 150522Z 29011KT 12/02 A3012 RMK A01 T01150020  RH  052%=      5-min Rain = 0
KCA2 150523Z 29011KT 11/02 A3012 RMK A01 T01140020  RH  052%=      5-min Rain = 0
KCA2 150524Z 29012KT 11/02 A3012 RMK A01 T01140020  RH  052%=      5-min Rain = 0
KCA2 150525Z 29011KT 11/02 A3012 RMK A01 T01140020  RH  053%=      5-min Rain = 0
KCA2 150526Z 29012KT 11/02 A3012 RMK A01 T01140020  RH  053%=      5-min Rain = 0
KCA2 150527Z 29010KT 11/02 A3012 RMK A01 T01140020  RH  053%=      5-min Rain = 0
KCA2 150528Z 29011KT 11/02 A3012 RMK A01 T01140020  RH  053%=      5-min Rain = 0
KCA2 150529Z 29011KT 11/02 A3012 RMK A01 T01130020  RH  053%=      5-min Rain = 0
KCA2 150530Z 29010KT 11/02 A3012 RMK A01 T01130021  RH  053%=      5-min Rain = 0
KCA2 150531Z 29012KT 11/02 A3012 RMK A01 T01130020  RH  053%=      5-min Rain = 0
KCA2 150532Z 29010KT 11/02 A3012 RMK A01 T01130020  RH  053%=      5-min Rain = 0
KCA2 150533Z 28010KT 11/02 A3012 RMK A01 T01130020  RH  053%=      5-min Rain = 0
KCA2 150534Z 29010KT 11/02 A3012 RMK A01 T01130020  RH  053%=      5-min Rain = 0
KCA2 150535Z 29010KT 11/02 A3012 RMK A01 T01130020  RH  053%=      5-min Rain = 0
KCA2 150536Z 29011KT 11/02 A3012 RMK A01 T01120020  RH  053%=      5-min Rain = 0
KCA2 150537Z 29011KT 11/02 A3012 RMK A01 T01120021  RH  053%=      5-min Rain = 0
KCA2 150538Z 29010KT 11/02 A3012 RMK A01 T01120020  RH  053%=      5-min Rain = 0
KCA2 150539Z 29010KT 11/02 A3012 RMK A01 T01120020  RH  053%=      5-min Rain = 0
KCA2 150540Z 29012KT 11/02 A3012 RMK A01 T01120020  RH  053%=      5-min Rain = 0
KCA2 150541Z 29010KT 11/02 A3012 RMK A01 T01120020  RH  053%=      5-min Rain = 0
KCA2 150542Z 29010KT 11/02 A3013 RMK A01 T01120020  RH  053%=      5-min Rain = 0
KCA2 150543Z 29010KT 11/02 A3013 RMK A01 T01120020  RH  053%=      5-min Rain = 0
KCA2 150544Z 29010KT 11/02 A3013 RMK A01 T01120021  RH  053%=      5-min Rain = 0
KCA2 150545Z 29010KT 11/02 A3013 RMK A01 T01120021  RH  053%=      5-min Rain = 0
KCA2 150546Z 29012KT 11/02 A3013 RMK A01 T01110020  RH  054%=      5-min Rain = 0
KCA2 150547Z 29011KT 11/02 A3013 RMK A01 T01110021  RH  054%=      5-min Rain = 0
KCA2 150548Z 29011KT 11/02 A3012 RMK A01 T01100020  RH  054%=      5-min Rain = 0
KCA2 150549Z 29010KT 11/02 A3013 RMK A01 T01100020  RH  054%=      5-min Rain = 0
KCA2 150550Z 29010KT 11/02 A3013 RMK A01 T01100021  RH  054%=      5-min Rain = 0
KCA2 150551Z 29010KT 11/02 A3013 RMK A01 T01100021  RH  054%=      5-min Rain = 0
KCA2 150552Z 30010KT 11/02 A3013 RMK A01 T01090021  RH  054%=      5-min Rain = 0
KCA2 150553Z 30010KT 11/02 A3013 RMK A01 T01090021  RH  054%=      5-min Rain = 0
KCA2 150554Z 29009KT 11/02 A3013 RMK A01 T01100021  RH  054%=      5-min Rain = 0
KCA2 150555Z 29010KT 11/02 A3013 RMK A01 T01100021  RH  054%=      5-min Rain = 0
KCA2 150556Z 30012KT 11/02 A3013 RMK A01 T01090020  RH  054%=      5-min Rain = 0
KCA2 150557Z 30010KT 11/02 A3013 RMK A01 T01100021  RH  054%=      5-min Rain = 0
KCA2 150558Z 29010KT 11/02 A3013 RMK A01 T01100021  RH  054%=      5-min Rain = 0
KCA2 150559Z 30009KT 11/02 A3013 RMK A01 T01100021  RH  054%=      5-min Rain = 0

Page generated in 0.1776 seconds.